PWSweather.com
Personal Weather Stations
Station Observations
GRACELEHAN
The Grace C. Lehan Memorial Weather Station, West Hartford, CT 06107

The Grace C. Lehan Memorial Weather StationWest Hartford, CT 06107

Lat: 41.745629, Lon: -72.7443516

Elevation: 136

Station Type: Davis Vantage Pro2 Plus

High Low Average
Temperature 15.3°F-9.3°C -0.1°F-17.8°C 7.9°F-13.4°C
Dew Point -1.0°F-18.3°C -7.4°F-21.9°C -3.5°F-19.7°C
Winds 19.0 mph 30.6 kmh Calm Calm 2.0 mph WNW3.2 kmh WNW
Wind Gusts 19.0 mph30.6 kmh -- 4.0 mph6.4 kmh
Humidity 75% 43% 60%
Pressure 30.34 in1027.4 mb 30.26 in1024.7 mb -
Precipitation 0.00 in0.0 mm - -
Hour Temp Dew Point Humidity Winds Wind Gusts Pressure Precip Precip Rate Daily Precip Total
12:00 AM 7.3°F-13.7°C -2.3°F-19.1°C 64% Calm Calm -- 30.27 in1025.1 mb 0.00 in0.0 mm 0.00 in0.0 mm 0.00 in0.0 mm
12:02 AM 7.2°F-13.8°C -2.4°F-19.1°C 64% Calm Calm -- 30.27 in1025.1 mb 0.00 in0.0 mm 0.00 in0.0 mm 0.00 in0.0 mm
12:04 AM 7.2°F-13.8°C -2.4°F-19.1°C 64% Calm Calm -- 30.27 in1025.1 mb 0.00 in0.0 mm 0.00 in0.0 mm 0.00 in0.0 mm
12:06 AM 7.1°F-13.8°C -2.5°F-19.2°C 64% Calm Calm -- 30.27 in1025.1 mb 0.00 in0.0 mm 0.00 in0.0 mm 0.00 in0.0 mm
12:08 AM 7.0°F-13.9°C -2.6°F-19.2°C 64% Calm Calm -- 30.27 in1025.1 mb 0.00 in0.0 mm 0.00 in0.0 mm 0.00 in0.0 mm
12:10 AM 6.9°F-13.9°C -2.7°F-19.3°C 64% Calm Calm -- 30.27 in1025.1 mb 0.00 in0.0 mm 0.00 in0.0 mm 0.00 in0.0 mm
12:12 AM 6.9°F-13.9°C -2.7°F-19.3°C 64% Calm Calm -- 30.27 in1025.1 mb 0.00 in0.0 mm 0.00 in0.0 mm 0.00 in0.0 mm
12:14 AM 6.8°F-14.0°C -2.5°F-19.2°C 65% Calm Calm -- 30.27 in1025.1 mb 0.00 in0.0 mm 0.00 in0.0 mm 0.00 in0.0 mm
12:16 AM 6.8°F-14.0°C -2.8°F-19.3°C 64% Calm Calm -- 30.27 in1025.1 mb 0.00 in0.0 mm 0.00 in0.0 mm 0.00 in0.0 mm
12:18 AM 6.7°F-14.1°C -2.9°F-19.4°C 64% Calm Calm -- 30.27 in1025.1 mb 0.00 in0.0 mm 0.00 in0.0 mm 0.00 in0.0 mm
12:20 AM 6.7°F-14.1°C -2.6°F-19.2°C 65% Calm Calm -- 30.27 in1025.1 mb 0.00 in0.0 mm 0.00 in0.0 mm 0.00 in0.0 mm
12:22 AM 6.7°F-14.1°C -2.6°F-19.2°C 65% Calm Calm -- 30.27 in1025.1 mb 0.00 in0.0 mm 0.00 in0.0 mm 0.00 in0.0 mm
12:24 AM 6.6°F-14.1°C -2.7°F-19.3°C 65% Calm Calm -- 30.27 in1025.1 mb 0.00 in0.0 mm 0.00 in0.0 mm 0.00 in0.0 mm
12:26 AM 6.6°F-14.1°C -2.7°F-19.3°C 65% Calm Calm -- 30.27 in1025.1 mb 0.00 in0.0 mm 0.00 in0.0 mm 0.00 in0.0 mm
12:28 AM 6.5°F-14.2°C -2.4°F-19.1°C 66% 1.0 mph W1.6 kmh W 1.0 mph1.6 kmh 30.27 in1025.1 mb 0.00 in0.0 mm 0.00 in0.0 mm 0.00 in0.0 mm
12:30 AM 6.5°F-14.2°C -2.4°F-19.1°C 66% Calm Calm -- 30.27 in1025.1 mb 0.00 in0.0 mm 0.00 in0.0 mm 0.00 in0.0 mm
12:32 AM 6.5°F-14.2°C -2.4°F-19.1°C 66% Calm Calm -- 30.27 in1025.1 mb 0.00 in0.0 mm 0.00 in0.0 mm 0.00 in0.0 mm
12:34 AM 6.5°F-14.2°C -2.4°F-19.1°C 66% 3.0 mph WNW4.8 kmh WNW 4.0 mph6.4 kmh 30.27 in1025.1 mb 0.00 in0.0 mm 0.00 in0.0 mm 0.00 in0.0 mm
12:36 AM 6.4°F-14.2°C -2.5°F-19.2°C 66% Calm Calm 2.0 mph3.2 kmh 30.27 in1025.1 mb 0.00 in0.0 mm 0.00 in0.0 mm 0.00 in0.0 mm
12:38 AM 6.4°F-14.2°C -2.5°F-19.2°C 66% Calm Calm 1.0 mph1.6 kmh 30.27 in1025.1 mb 0.00 in0.0 mm 0.00 in0.0 mm 0.00 in0.0 mm
12:40 AM 6.4°F-14.2°C -2.5°F-19.2°C 66% Calm Calm 1.0 mph1.6 kmh 30.26 in1024.7 mb 0.00 in0.0 mm 0.00 in0.0 mm 0.00 in0.0 mm
12:42 AM 6.4°F-14.2°C -2.5°F-19.2°C 66% 1.0 mph NW1.6 kmh NW 1.0 mph1.6 kmh 30.26 in1024.7 mb 0.00 in0.0 mm 0.00 in0.0 mm 0.00 in0.0 mm
12:44 AM 6.4°F-14.2°C -2.5°F-19.2°C 66% Calm Calm 2.0 mph3.2 kmh 30.26 in1024.7 mb 0.00 in0.0 mm 0.00 in0.0 mm 0.00 in0.0 mm
12:46 AM 6.4°F-14.2°C -2.5°F-19.2°C 66% Calm Calm -- 30.26 in1024.7 mb 0.00 in0.0 mm 0.00 in0.0 mm 0.00 in0.0 mm
12:48 AM 6.4°F-14.2°C -2.5°F-19.2°C 66% Calm Calm 3.0 mph4.8 kmh 30.26 in1024.7 mb 0.00 in0.0 mm 0.00 in0.0 mm 0.00 in0.0 mm
12:50 AM 6.4°F-14.2°C -2.5°F-19.2°C 66% Calm Calm -- 30.26 in1024.7 mb 0.00 in0.0 mm 0.00 in0.0 mm 0.00 in0.0 mm
12:52 AM 6.4°F-14.2°C -2.5°F-19.2°C 66% Calm Calm -- 30.26 in1024.7 mb 0.00 in0.0 mm 0.00 in0.0 mm 0.00 in0.0 mm
12:54 AM 6.4°F-14.2°C -2.2°F-19.0°C 67% Calm Calm 4.0 mph6.4 kmh 30.26 in1024.7 mb 0.00 in0.0 mm 0.00 in0.0 mm 0.00 in0.0 mm
12:56 AM 6.4°F-14.2°C -2.5°F-19.2°C 66% Calm Calm -- 30.26 in1024.7 mb 0.00 in0.0 mm 0.00 in0.0 mm 0.00 in0.0 mm
12:58 AM 6.4°F-14.2°C -2.5°F-19.2°C 66% Calm Calm 2.0 mph3.2 kmh 30.26 in1024.7 mb 0.00 in0.0 mm 0.00 in0.0 mm 0.00 in0.0 mm
01:00 AM 6.3°F-14.3°C -2.3°F-19.1°C 67% 2.0 mph NW3.2 kmh NW 2.0 mph3.2 kmh 30.26 in1024.7 mb 0.00 in0.0 mm 0.00 in0.0 mm 0.00 in0.0 mm
01:02 AM 6.3°F-14.3°C -2.6°F-19.2°C 66% Calm Calm 1.0 mph1.6 kmh 30.26 in1024.7 mb 0.00 in0.0 mm 0.00 in0.0 mm 0.00 in0.0 mm
01:04 AM 6.3°F-14.3°C -2.6°F-19.2°C 66% Calm Calm -- 30.26 in1024.7 mb 0.00 in0.0 mm 0.00 in0.0 mm 0.00 in0.0 mm
01:06 AM 6.3°F-14.3°C -2.6°F-19.2°C 66% 1.0 mph NW1.6 kmh NW 4.0 mph6.4 kmh 30.26 in1024.7 mb 0.00 in0.0 mm 0.00 in0.0 mm 0.00 in0.0 mm
01:08 AM 6.3°F-14.3°C -2.6°F-19.2°C 66% Calm Calm -- 30.26 in1024.7 mb 0.00 in0.0 mm 0.00 in0.0 mm 0.00 in0.0 mm
01:10 AM 6.2°F-14.3°C -2.7°F-19.3°C 66% Calm Calm -- 30.26 in1024.7 mb 0.00 in0.0 mm 0.00 in0.0 mm 0.00 in0.0 mm
01:12 AM 6.2°F-14.3°C -2.7°F-19.3°C 66% Calm Calm -- 30.26 in1024.7 mb 0.00 in0.0 mm 0.00 in0.0 mm 0.00 in0.0 mm
01:14 AM 6.2°F-14.3°C -2.7°F-19.3°C 66% Calm Calm -- 30.26 in1024.7 mb 0.00 in0.0 mm 0.00 in0.0 mm 0.00 in0.0 mm
01:16 AM 6.1°F-14.4°C -2.8°F-19.3°C 66% Calm Calm 1.0 mph1.6 kmh 30.26 in1024.7 mb 0.00 in0.0 mm 0.00 in0.0 mm 0.00 in0.0 mm
01:18 AM 6.1°F-14.4°C -2.8°F-19.3°C 66% Calm Calm 2.0 mph3.2 kmh 30.26 in1024.7 mb 0.00 in0.0 mm 0.00 in0.0 mm 0.00 in0.0 mm
01:20 AM 6.1°F-14.4°C -2.8°F-19.3°C 66% Calm Calm -- 30.26 in1024.7 mb 0.00 in0.0 mm 0.00 in0.0 mm 0.00 in0.0 mm
01:22 AM 6.0°F-14.4°C -2.9°F-19.4°C 66% Calm Calm -- 30.26 in1024.7 mb 0.00 in0.0 mm 0.00 in0.0 mm 0.00 in0.0 mm
01:24 AM 6.0°F-14.4°C -2.9°F-19.4°C 66% 2.0 mph NW3.2 kmh NW 2.0 mph3.2 kmh 30.26 in1024.7 mb 0.00 in0.0 mm 0.00 in0.0 mm 0.00 in0.0 mm
01:26 AM 6.0°F-14.4°C -2.9°F-19.4°C 66% Calm Calm 1.0 mph1.6 kmh 30.26 in1024.7 mb 0.00 in0.0 mm 0.00 in0.0 mm 0.00 in0.0 mm
01:28 AM 6.0°F-14.4°C -2.9°F-19.4°C 66% Calm Calm -- 30.26 in1024.7 mb 0.00 in0.0 mm 0.00 in0.0 mm 0.00 in0.0 mm
01:30 AM 6.0°F-14.4°C -2.9°F-19.4°C 66% Calm Calm 2.0 mph3.2 kmh 30.26 in1024.7 mb 0.00 in0.0 mm 0.00 in0.0 mm 0.00 in0.0 mm
01:32 AM 6.0°F-14.4°C -2.9°F-19.4°C 66% Calm Calm -- 30.26 in1024.7 mb 0.00 in0.0 mm 0.00 in0.0 mm 0.00 in0.0 mm
01:34 AM 6.0°F-14.4°C -2.9°F-19.4°C 66% Calm Calm -- 30.26 in1024.7 mb 0.00 in0.0 mm 0.00 in0.0 mm 0.00 in0.0 mm
01:36 AM 5.9°F-14.5°C -3.0°F-19.4°C 66% Calm Calm -- 30.26 in1024.7 mb 0.00 in0.0 mm 0.00 in0.0 mm 0.00 in0.0 mm
01:38 AM 6.0°F-14.4°C -2.9°F-19.4°C 66% 1.0 mph NW1.6 kmh NW 1.0 mph1.6 kmh 30.27 in1025.1 mb 0.00 in0.0 mm 0.00 in0.0 mm 0.00 in0.0 mm
01:40 AM 5.9°F-14.5°C -3.0°F-19.4°C 66% Calm Calm -- 30.27 in1025.1 mb 0.00 in0.0 mm 0.00 in0.0 mm 0.00 in0.0 mm
01:42 AM 5.9°F-14.5°C -3.0°F-19.4°C 66% Calm Calm -- 30.27 in1025.1 mb 0.00 in0.0 mm 0.00 in0.0 mm 0.00 in0.0 mm
01:44 AM 5.9°F-14.5°C -2.7°F-19.3°C 67% Calm Calm -- 30.27 in1025.1 mb 0.00 in0.0 mm 0.00 in0.0 mm 0.00 in0.0 mm
01:46 AM 5.9°F-14.5°C -2.7°F-19.3°C 67% Calm Calm -- 30.27 in1025.1 mb 0.00 in0.0 mm 0.00 in0.0 mm 0.00 in0.0 mm
01:48 AM 5.9°F-14.5°C -2.7°F-19.3°C 67% Calm Calm -- 30.27 in1025.1 mb 0.00 in0.0 mm 0.00 in0.0 mm 0.00 in0.0 mm
01:50 AM 5.9°F-14.5°C -2.7°F-19.3°C 67% Calm Calm -- 30.27 in1025.1 mb 0.00 in0.0 mm 0.00 in0.0 mm 0.00 in0.0 mm
01:52 AM 5.9°F-14.5°C -2.7°F-19.3°C 67% Calm Calm -- 30.27 in1025.1 mb 0.00 in0.0 mm 0.00 in0.0 mm 0.00 in0.0 mm
01:54 AM 5.8°F-14.6°C -2.8°F-19.3°C 67% Calm Calm -- 30.27 in1025.1 mb 0.00 in0.0 mm 0.00 in0.0 mm 0.00 in0.0 mm
01:56 AM 5.8°F-14.6°C -2.8°F-19.3°C 67% Calm Calm -- 30.27 in1025.1 mb 0.00 in0.0 mm 0.00 in0.0 mm 0.00 in0.0 mm
01:58 AM 5.8°F-14.6°C -2.8°F-19.3°C 67% Calm Calm -- 30.27 in1025.1 mb 0.00 in0.0 mm 0.00 in0.0 mm 0.00 in0.0 mm
02:00 AM 5.7°F-14.6°C -2.9°F-19.4°C 67% Calm Calm -- 30.27 in1025.1 mb 0.00 in0.0 mm 0.00 in0.0 mm 0.00 in0.0 mm
02:02 AM 5.6°F-14.7°C -3.0°F-19.4°C 67% Calm Calm -- 30.27 in1025.1 mb 0.00 in0.0 mm 0.00 in0.0 mm 0.00 in0.0 mm
02:04 AM 5.6°F-14.7°C -3.0°F-19.4°C 67% 2.0 mph NW3.2 kmh NW 3.0 mph4.8 kmh 30.27 in1025.1 mb 0.00 in0.0 mm 0.00 in0.0 mm 0.00 in0.0 mm
02:06 AM 5.6°F-14.7°C -3.0°F-19.4°C 67% Calm Calm -- 30.27 in1025.1 mb 0.00 in0.0 mm 0.00 in0.0 mm 0.00 in0.0 mm
02:08 AM 5.5°F-14.7°C -3.1°F-19.5°C 67% Calm Calm -- 30.27 in1025.1 mb 0.00 in0.0 mm 0.00 in0.0 mm 0.00 in0.0 mm
02:10 AM 5.5°F-14.7°C -3.1°F-19.5°C 67% Calm Calm -- 30.27 in1025.1 mb 0.00 in0.0 mm 0.00 in0.0 mm 0.00 in0.0 mm
02:12 AM 5.5°F-14.7°C -3.1°F-19.5°C 67% Calm Calm -- 30.27 in1025.1 mb 0.00 in0.0 mm 0.00 in0.0 mm 0.00 in0.0 mm
02:14 AM 5.5°F-14.7°C -3.1°F-19.5°C 67% 1.0 mph NW1.6 kmh NW 2.0 mph3.2 kmh 30.27 in1025.1 mb 0.00 in0.0 mm 0.00 in0.0 mm 0.00 in0.0 mm
02:16 AM 5.4°F-14.8°C -3.5°F-19.7°C 66% Calm Calm -- 30.27 in1025.1 mb 0.00 in0.0 mm 0.00 in0.0 mm 0.00 in0.0 mm
02:18 AM 5.4°F-14.8°C -3.5°F-19.7°C 66% Calm Calm -- 30.27 in1025.1 mb 0.00 in0.0 mm 0.00 in0.0 mm 0.00 in0.0 mm
02:20 AM 5.4°F-14.8°C -3.5°F-19.7°C 66% 1.0 mph NW1.6 kmh NW 1.0 mph1.6 kmh 30.27 in1025.1 mb 0.00 in0.0 mm 0.00 in0.0 mm 0.00 in0.0 mm
02:24 AM 5.4°F-14.8°C -3.5°F-19.7°C 66% Calm Calm -- 30.27 in1025.1 mb 0.00 in0.0 mm 0.00 in0.0 mm 0.00 in0.0 mm
02:26 AM 5.3°F-14.8°C -3.6°F-19.8°C 66% Calm Calm -- 30.27 in1025.1 mb 0.00 in0.0 mm 0.00 in0.0 mm 0.00 in0.0 mm
02:28 AM 5.3°F-14.8°C -3.6°F-19.8°C 66% Calm Calm -- 30.27 in1025.1 mb 0.00 in0.0 mm 0.00 in0.0 mm 0.00 in0.0 mm
02:30 AM 5.3°F-14.8°C -3.6°F-19.8°C 66% Calm Calm -- 30.27 in1025.1 mb 0.00 in0.0 mm 0.00 in0.0 mm 0.00 in0.0 mm
02:32 AM 5.3°F-14.8°C -3.6°F-19.8°C 66% Calm Calm -- 30.27 in1025.1 mb 0.00 in0.0 mm 0.00 in0.0 mm 0.00 in0.0 mm
02:34 AM 5.3°F-14.8°C -3.6°F-19.8°C 66% Calm Calm -- 30.28 in1025.4 mb 0.00 in0.0 mm 0.00 in0.0 mm 0.00 in0.0 mm
02:36 AM 5.3°F-14.8°C -3.6°F-19.8°C 66% Calm Calm -- 30.27 in1025.1 mb 0.00 in0.0 mm 0.00 in0.0 mm 0.00 in0.0 mm
02:38 AM 5.2°F-14.9°C -3.7°F-19.8°C 66% Calm Calm -- 30.27 in1025.1 mb 0.00 in0.0 mm 0.00 in0.0 mm 0.00 in0.0 mm
02:40 AM 5.2°F-14.9°C -3.4°F-19.7°C 67% Calm Calm -- 30.27 in1025.1 mb 0.00 in0.0 mm 0.00 in0.0 mm 0.00 in0.0 mm
02:42 AM 5.1°F-14.9°C -3.5°F-19.7°C 67% Calm Calm -- 30.28 in1025.4 mb 0.00 in0.0 mm 0.00 in0.0 mm 0.00 in0.0 mm
02:44 AM 5.1°F-14.9°C -3.5°F-19.7°C 67% Calm Calm 1.0 mph1.6 kmh 30.28 in1025.4 mb 0.00 in0.0 mm 0.00 in0.0 mm 0.00 in0.0 mm
02:46 AM 5.1°F-14.9°C -3.5°F-19.7°C 67% Calm Calm -- 30.28 in1025.4 mb 0.00 in0.0 mm 0.00 in0.0 mm 0.00 in0.0 mm
02:48 AM 5.0°F-15.0°C -3.6°F-19.8°C 67% Calm Calm 1.0 mph1.6 kmh 30.28 in1025.4 mb 0.00 in0.0 mm 0.00 in0.0 mm 0.00 in0.0 mm
02:50 AM 5.0°F-15.0°C -3.6°F-19.8°C 67% Calm Calm -- 30.28 in1025.4 mb 0.00 in0.0 mm 0.00 in0.0 mm 0.00 in0.0 mm
02:52 AM 5.0°F-15.0°C -3.6°F-19.8°C 67% Calm Calm -- 30.28 in1025.4 mb 0.00 in0.0 mm 0.00 in0.0 mm 0.00 in0.0 mm
02:54 AM 5.0°F-15.0°C -3.6°F-19.8°C 67% Calm Calm -- 30.28 in1025.4 mb 0.00 in0.0 mm 0.00 in0.0 mm 0.00 in0.0 mm
02:56 AM 5.0°F-15.0°C -3.6°F-19.8°C 67% Calm Calm -- 30.28 in1025.4 mb 0.00 in0.0 mm 0.00 in0.0 mm 0.00 in0.0 mm
02:58 AM 4.9°F-15.1°C -3.6°F-19.8°C 67% Calm Calm -- 30.28 in1025.4 mb 0.00 in0.0 mm 0.00 in0.0 mm 0.00 in0.0 mm
03:00 AM 4.9°F-15.1°C -3.6°F-19.8°C 67% Calm Calm -- 30.28 in1025.4 mb 0.00 in0.0 mm 0.00 in0.0 mm 0.00 in0.0 mm
03:02 AM 4.9°F-15.1°C -3.6°F-19.8°C 67% Calm Calm -- 30.28 in1025.4 mb 0.00 in0.0 mm 0.00 in0.0 mm 0.00 in0.0 mm
03:04 AM 4.9°F-15.1°C -3.6°F-19.8°C 67% Calm Calm -- 30.28 in1025.4 mb 0.00 in0.0 mm 0.00 in0.0 mm 0.00 in0.0 mm
03:06 AM 4.8°F-15.1°C -3.7°F-19.8°C 67% Calm Calm -- 30.28 in1025.4 mb 0.00 in0.0 mm 0.00 in0.0 mm 0.00 in0.0 mm
03:08 AM 4.8°F-15.1°C -3.7°F-19.8°C 67% Calm Calm -- 30.28 in1025.4 mb 0.00 in0.0 mm 0.00 in0.0 mm 0.00 in0.0 mm
03:10 AM 4.7°F-15.2°C -3.8°F-19.9°C 67% Calm Calm -- 30.28 in1025.4 mb 0.00 in0.0 mm 0.00 in0.0 mm 0.00 in0.0 mm
03:12 AM 4.7°F-15.2°C -3.8°F-19.9°C 67% Calm Calm 2.0 mph3.2 kmh 30.28 in1025.4 mb 0.00 in0.0 mm 0.00 in0.0 mm 0.00 in0.0 mm
03:14 AM 4.7°F-15.2°C -3.8°F-19.9°C 67% Calm Calm -- 30.28 in1025.4 mb 0.00 in0.0 mm 0.00 in0.0 mm 0.00 in0.0 mm
03:16 AM 4.6°F-15.2°C -3.9°F-19.9°C 67% Calm Calm -- 30.28 in1025.4 mb 0.00 in0.0 mm 0.00 in0.0 mm 0.00 in0.0 mm
03:18 AM 4.6°F-15.2°C -3.9°F-19.9°C 67% Calm Calm -- 30.29 in1025.7 mb 0.00 in0.0 mm 0.00 in0.0 mm 0.00 in0.0 mm
03:20 AM 4.5°F-15.3°C -4.3°F-20.2°C 66% 1.0 mph NW1.6 kmh NW 1.0 mph1.6 kmh 30.28 in1025.4 mb 0.00 in0.0 mm 0.00 in0.0 mm 0.00 in0.0 mm
03:22 AM 4.5°F-15.3°C -4.3°F-20.2°C 66% 1.0 mph NW1.6 kmh NW 1.0 mph1.6 kmh 30.28 in1025.4 mb 0.00 in0.0 mm 0.00 in0.0 mm 0.00 in0.0 mm
03:24 AM 4.5°F-15.3°C -4.3°F-20.2°C 66% Calm Calm -- 30.29 in1025.7 mb 0.00 in0.0 mm 0.00 in0.0 mm 0.00 in0.0 mm
03:26 AM 4.4°F-15.3°C -4.4°F-20.2°C 66% Calm Calm -- 30.29 in1025.7 mb 0.00 in0.0 mm 0.00 in0.0 mm 0.00 in0.0 mm
03:28 AM 4.4°F-15.3°C -4.4°F-20.2°C 66% Calm Calm -- 30.29 in1025.7 mb 0.00 in0.0 mm 0.00 in0.0 mm 0.00 in0.0 mm
03:30 AM 4.4°F-15.3°C -4.4°F-20.2°C 66% Calm Calm 2.0 mph3.2 kmh 30.29 in1025.7 mb 0.00 in0.0 mm 0.00 in0.0 mm 0.00 in0.0 mm
03:32 AM 4.3°F-15.4°C -4.5°F-20.3°C 66% Calm Calm -- 30.29 in1025.7 mb 0.00 in0.0 mm 0.00 in0.0 mm 0.00 in0.0 mm
03:34 AM 4.2°F-15.4°C -4.6°F-20.3°C 66% Calm Calm -- 30.29 in1025.7 mb 0.00 in0.0 mm 0.00 in0.0 mm 0.00 in0.0 mm
03:36 AM 4.2°F-15.4°C -4.6°F-20.3°C 66% Calm Calm -- 30.29 in1025.7 mb 0.00 in0.0 mm 0.00 in0.0 mm 0.00 in0.0 mm
03:38 AM 4.2°F-15.4°C -4.6°F-20.3°C 66% Calm Calm -- 30.29 in1025.7 mb 0.00 in0.0 mm 0.00 in0.0 mm 0.00 in0.0 mm
03:40 AM 4.2°F-15.4°C -4.6°F-20.3°C 66% Calm Calm 3.0 mph4.8 kmh 30.29 in1025.7 mb 0.00 in0.0 mm 0.00 in0.0 mm 0.00 in0.0 mm
03:42 AM 4.1°F-15.5°C -4.7°F-20.4°C 66% 1.0 mph NW1.6 kmh NW 1.0 mph1.6 kmh 30.29 in1025.7 mb 0.00 in0.0 mm 0.00 in0.0 mm 0.00 in0.0 mm
03:44 AM 4.2°F-15.4°C -4.6°F-20.3°C 66% Calm Calm -- 30.29 in1025.7 mb 0.00 in0.0 mm 0.00 in0.0 mm 0.00 in0.0 mm
03:46 AM 4.1°F-15.5°C -4.7°F-20.4°C 66% Calm Calm 1.0 mph1.6 kmh 30.29 in1025.7 mb 0.00 in0.0 mm 0.00 in0.0 mm 0.00 in0.0 mm
03:48 AM 4.1°F-15.5°C -4.7°F-20.4°C 66% Calm Calm -- 30.29 in1025.7 mb 0.00 in0.0 mm 0.00 in0.0 mm 0.00 in0.0 mm
03:50 AM 4.0°F-15.6°C -4.8°F-20.4°C 66% Calm Calm -- 30.29 in1025.7 mb 0.00 in0.0 mm 0.00 in0.0 mm 0.00 in0.0 mm
03:52 AM 4.0°F-15.6°C -4.8°F-20.4°C 66% Calm Calm -- 30.29 in1025.7 mb 0.00 in0.0 mm 0.00 in0.0 mm 0.00 in0.0 mm
03:54 AM 4.0°F-15.6°C -4.5°F-20.3°C 67% Calm Calm 1.0 mph1.6 kmh 30.29 in1025.7 mb 0.00 in0.0 mm 0.00 in0.0 mm 0.00 in0.0 mm
03:56 AM 4.0°F-15.6°C -4.5°F-20.3°C 67% Calm Calm 2.0 mph3.2 kmh 30.29 in1025.7 mb 0.00 in0.0 mm 0.00 in0.0 mm 0.00 in0.0 mm
03:58 AM 3.9°F-15.6°C -4.6°F-20.3°C 67% Calm Calm 1.0 mph1.6 kmh 30.29 in1025.7 mb 0.00 in0.0 mm 0.00 in0.0 mm 0.00 in0.0 mm
04:00 AM 3.9°F-15.6°C -4.6°F-20.3°C 67% Calm Calm -- 30.28 in1025.4 mb 0.00 in0.0 mm 0.00 in0.0 mm 0.00 in0.0 mm
04:02 AM 3.8°F-15.7°C -4.7°F-20.4°C 67% Calm Calm -- 30.28 in1025.4 mb 0.00 in0.0 mm 0.00 in0.0 mm 0.00 in0.0 mm
04:04 AM 3.8°F-15.7°C -5.0°F-20.6°C 66% Calm Calm -- 30.28 in1025.4 mb 0.00 in0.0 mm 0.00 in0.0 mm 0.00 in0.0 mm
04:06 AM 3.8°F-15.7°C -4.7°F-20.4°C 67% Calm Calm -- 30.28 in1025.4 mb 0.00 in0.0 mm 0.00 in0.0 mm 0.00 in0.0 mm
04:08 AM 3.8°F-15.7°C -4.7°F-20.4°C 67% Calm Calm -- 30.28 in1025.4 mb 0.00 in0.0 mm 0.00 in0.0 mm 0.00 in0.0 mm
04:10 AM 3.7°F-15.7°C -4.8°F-20.4°C 67% Calm Calm -- 30.28 in1025.4 mb 0.00 in0.0 mm 0.00 in0.0 mm 0.00 in0.0 mm
04:12 AM 3.7°F-15.7°C -4.8°F-20.4°C 67% 1.0 mph NW1.6 kmh NW 1.0 mph1.6 kmh 30.28 in1025.4 mb 0.00 in0.0 mm 0.00 in0.0 mm 0.00 in0.0 mm
04:14 AM 3.7°F-15.7°C -4.8°F-20.4°C 67% Calm Calm 1.0 mph1.6 kmh 30.28 in1025.4 mb 0.00 in0.0 mm 0.00 in0.0 mm 0.00 in0.0 mm
04:16 AM 3.6°F-15.8°C -4.9°F-20.5°C 67% Calm Calm 1.0 mph1.6 kmh 30.28 in1025.4 mb 0.00 in0.0 mm 0.00 in0.0 mm 0.00 in0.0 mm
04:18 AM 3.6°F-15.8°C -5.2°F-20.7°C 66% Calm Calm -- 30.28 in1025.4 mb 0.00 in0.0 mm 0.00 in0.0 mm 0.00 in0.0 mm
04:20 AM 3.6°F-15.8°C -5.2°F-20.7°C 66% Calm Calm 1.0 mph1.6 kmh 30.28 in1025.4 mb 0.00 in0.0 mm 0.00 in0.0 mm 0.00 in0.0 mm
04:22 AM 3.5°F-15.8°C -5.3°F-20.7°C 66% Calm Calm 1.0 mph1.6 kmh 30.29 in1025.7 mb 0.00 in0.0 mm 0.00 in0.0 mm 0.00 in0.0 mm
04:26 AM 3.4°F-15.9°C -5.1°F-20.6°C 67% Calm Calm -- 30.28 in1025.4 mb 0.00 in0.0 mm 0.00 in0.0 mm 0.00 in0.0 mm
04:28 AM 3.4°F-15.9°C -5.1°F-20.6°C 67% Calm Calm -- 30.28 in1025.4 mb 0.00 in0.0 mm 0.00 in0.0 mm 0.00 in0.0 mm
04:30 AM 3.4°F-15.9°C -5.1°F-20.6°C 67% Calm Calm -- 30.28 in1025.4 mb 0.00 in0.0 mm 0.00 in0.0 mm 0.00 in0.0 mm
04:32 AM 3.3°F-15.9°C -5.2°F-20.7°C 67% Calm Calm -- 30.28 in1025.4 mb 0.00 in0.0 mm 0.00 in0.0 mm 0.00 in0.0 mm
04:34 AM 3.3°F-15.9°C -4.9°F-20.5°C 68% Calm Calm -- 30.28 in1025.4 mb 0.00 in0.0 mm 0.00 in0.0 mm 0.00 in0.0 mm
04:36 AM 3.2°F-16.0°C -5.0°F-20.6°C 68% Calm Calm -- 30.28 in1025.4 mb 0.00 in0.0 mm 0.00 in0.0 mm 0.00 in0.0 mm
04:38 AM 3.2°F-16.0°C -5.0°F-20.6°C 68% 1.0 mph NW1.6 kmh NW 3.0 mph4.8 kmh 30.28 in1025.4 mb 0.00 in0.0 mm 0.00 in0.0 mm 0.00 in0.0 mm
04:40 AM 3.1°F-16.1°C -5.1°F-20.6°C 68% 2.0 mph NW3.2 kmh NW 2.0 mph3.2 kmh 30.28 in1025.4 mb 0.00 in0.0 mm 0.00 in0.0 mm 0.00 in0.0 mm
04:42 AM 3.1°F-16.1°C -5.1°F-20.6°C 68% Calm Calm 2.0 mph3.2 kmh 30.28 in1025.4 mb 0.00 in0.0 mm 0.00 in0.0 mm 0.00 in0.0 mm
04:44 AM 3.1°F-16.1°C -5.4°F-20.8°C 67% 5.0 mph NW8.0 kmh NW 5.0 mph8.0 kmh 30.28 in1025.4 mb 0.00 in0.0 mm 0.00 in0.0 mm 0.00 in0.0 mm
04:46 AM 3.0°F-16.1°C -5.5°F-20.8°C 67% Calm Calm 3.0 mph4.8 kmh 30.28 in1025.4 mb 0.00 in0.0 mm 0.00 in0.0 mm 0.00 in0.0 mm
04:48 AM 2.9°F-16.2°C -5.6°F-20.9°C 67% Calm Calm 5.0 mph8.0 kmh 30.27 in1025.1 mb 0.00 in0.0 mm 0.00 in0.0 mm 0.00 in0.0 mm
04:50 AM 2.9°F-16.2°C -5.6°F-20.9°C 67% Calm Calm 4.0 mph6.4 kmh 30.27 in1025.1 mb 0.00 in0.0 mm 0.00 in0.0 mm 0.00 in0.0 mm
04:52 AM 2.9°F-16.2°C -5.6°F-20.9°C 67% Calm Calm 2.0 mph3.2 kmh 30.28 in1025.4 mb 0.00 in0.0 mm 0.00 in0.0 mm 0.00 in0.0 mm
04:54 AM 2.8°F-16.2°C -5.7°F-20.9°C 67% Calm Calm -- 30.28 in1025.4 mb 0.00 in0.0 mm 0.00 in0.0 mm 0.00 in0.0 mm
04:56 AM 2.8°F-16.2°C -5.7°F-20.9°C 67% 6.0 mph N9.7 kmh N 6.0 mph9.7 kmh 30.28 in1025.4 mb 0.00 in0.0 mm 0.00 in0.0 mm 0.00 in0.0 mm
04:58 AM 2.8°F-16.2°C -5.7°F-20.9°C 67% 1.0 mph NNW1.6 kmh NNW 5.0 mph8.0 kmh 30.28 in1025.4 mb 0.00 in0.0 mm 0.00 in0.0 mm 0.00 in0.0 mm
05:00 AM 2.8°F-16.2°C -5.7°F-20.9°C 67% Calm Calm -- 30.28 in1025.4 mb 0.00 in0.0 mm 0.00 in0.0 mm 0.00 in0.0 mm
05:02 AM 2.8°F-16.2°C -5.7°F-20.9°C 67% Calm Calm 1.0 mph1.6 kmh 30.28 in1025.4 mb 0.00 in0.0 mm 0.00 in0.0 mm 0.00 in0.0 mm
05:04 AM 2.8°F-16.2°C -5.7°F-20.9°C 67% Calm Calm -- 30.28 in1025.4 mb 0.00 in0.0 mm 0.00 in0.0 mm 0.00 in0.0 mm
05:06 AM 2.7°F-16.3°C -5.8°F-21.0°C 67% Calm Calm -- 30.28 in1025.4 mb 0.00 in0.0 mm 0.00 in0.0 mm 0.00 in0.0 mm
05:08 AM 2.7°F-16.3°C -5.8°F-21.0°C 67% Calm Calm -- 30.27 in1025.1 mb 0.00 in0.0 mm 0.00 in0.0 mm 0.00 in0.0 mm
05:10 AM 2.7°F-16.3°C -5.8°F-21.0°C 67% 1.0 mph NNW1.6 kmh NNW 1.0 mph1.6 kmh 30.27 in1025.1 mb 0.00 in0.0 mm 0.00 in0.0 mm 0.00 in0.0 mm
05:12 AM 2.7°F-16.3°C -5.8°F-21.0°C 67% Calm Calm -- 30.27 in1025.1 mb 0.00 in0.0 mm 0.00 in0.0 mm 0.00 in0.0 mm
05:14 AM 2.7°F-16.3°C -5.4°F-20.8°C 68% Calm Calm -- 30.28 in1025.4 mb 0.00 in0.0 mm 0.00 in0.0 mm 0.00 in0.0 mm
05:16 AM 2.7°F-16.3°C -5.4°F-20.8°C 68% Calm Calm -- 30.28 in1025.4 mb 0.00 in0.0 mm 0.00 in0.0 mm 0.00 in0.0 mm
05:18 AM 2.7°F-16.3°C -5.8°F-21.0°C 67% Calm Calm -- 30.28 in1025.4 mb 0.00 in0.0 mm 0.00 in0.0 mm 0.00 in0.0 mm
05:20 AM 2.6°F-16.3°C -5.9°F-21.1°C 67% Calm Calm -- 30.28 in1025.4 mb 0.00 in0.0 mm 0.00 in0.0 mm 0.00 in0.0 mm
05:22 AM 2.6°F-16.3°C -5.5°F-20.8°C 68% 1.0 mph NNW1.6 kmh NNW 1.0 mph1.6 kmh 30.28 in1025.4 mb 0.00 in0.0 mm 0.00 in0.0 mm 0.00 in0.0 mm
05:26 AM 2.5°F-16.4°C -5.6°F-20.9°C 68% Calm Calm -- 30.28 in1025.4 mb 0.00 in0.0 mm 0.00 in0.0 mm 0.00 in0.0 mm
05:28 AM 2.4°F-16.4°C -5.7°F-20.9°C 68% Calm Calm -- 30.28 in1025.4 mb 0.00 in0.0 mm 0.00 in0.0 mm 0.00 in0.0 mm
05:30 AM 2.4°F-16.4°C -5.7°F-20.9°C 68% Calm Calm -- 30.28 in1025.4 mb 0.00 in0.0 mm 0.00 in0.0 mm 0.00 in0.0 mm
05:32 AM 2.4°F-16.4°C -5.4°F-20.8°C 69% Calm Calm -- 30.28 in1025.4 mb 0.00 in0.0 mm 0.00 in0.0 mm 0.00 in0.0 mm
05:34 AM 2.3°F-16.5°C -5.5°F-20.8°C 69% Calm Calm -- 30.28 in1025.4 mb 0.00 in0.0 mm 0.00 in0.0 mm 0.00 in0.0 mm
05:36 AM 2.2°F-16.6°C -5.6°F-20.9°C 69% Calm Calm -- 30.28 in1025.4 mb 0.00 in0.0 mm 0.00 in0.0 mm 0.00 in0.0 mm
05:38 AM 2.2°F-16.6°C -5.6°F-20.9°C 69% Calm Calm -- 30.29 in1025.7 mb 0.00 in0.0 mm 0.00 in0.0 mm 0.00 in0.0 mm
05:40 AM 2.1°F-16.6°C -5.7°F-20.9°C 69% Calm Calm -- 30.29 in1025.7 mb 0.00 in0.0 mm 0.00 in0.0 mm 0.00 in0.0 mm
05:42 AM 2.0°F-16.7°C -5.8°F-21.0°C 69% Calm Calm -- 30.28 in1025.4 mb 0.00 in0.0 mm 0.00 in0.0 mm 0.00 in0.0 mm
05:44 AM 1.9°F-16.7°C -5.9°F-21.1°C 69% Calm Calm -- 30.29 in1025.7 mb 0.00 in0.0 mm 0.00 in0.0 mm 0.00 in0.0 mm
05:46 AM 1.9°F-16.7°C -5.9°F-21.1°C 69% Calm Calm -- 30.29 in1025.7 mb 0.00 in0.0 mm 0.00 in0.0 mm 0.00 in0.0 mm
05:48 AM 1.8°F-16.8°C -6.0°F-21.1°C 69% Calm Calm 1.0 mph1.6 kmh 30.29 in1025.7 mb 0.00 in0.0 mm 0.00 in0.0 mm 0.00 in0.0 mm
05:50 AM 1.7°F-16.8°C -6.1°F-21.2°C 69% Calm Calm -- 30.29 in1025.7 mb 0.00 in0.0 mm 0.00 in0.0 mm 0.00 in0.0 mm
05:52 AM 1.7°F-16.8°C -6.1°F-21.2°C 69% Calm Calm -- 30.29 in1025.7 mb 0.00 in0.0 mm 0.00 in0.0 mm 0.00 in0.0 mm
05:54 AM 1.6°F-16.9°C -6.2°F-21.2°C 69% Calm Calm -- 30.29 in1025.7 mb 0.00 in0.0 mm 0.00 in0.0 mm 0.00 in0.0 mm
05:56 AM 1.6°F-16.9°C -5.9°F-21.1°C 70% Calm Calm -- 30.29 in1025.7 mb 0.00 in0.0 mm 0.00 in0.0 mm 0.00 in0.0 mm
05:58 AM 1.5°F-16.9°C -6.0°F-21.1°C 70% Calm Calm -- 30.29 in1025.7 mb 0.00 in0.0 mm 0.00 in0.0 mm 0.00 in0.0 mm
06:00 AM 1.4°F-17.0°C -6.1°F-21.2°C 70% Calm Calm -- 30.29 in1025.7 mb 0.00 in0.0 mm 0.00 in0.0 mm 0.00 in0.0 mm
06:02 AM 1.4°F-17.0°C -6.1°F-21.2°C 70% Calm Calm -- 30.29 in1025.7 mb 0.00 in0.0 mm 0.00 in0.0 mm 0.00 in0.0 mm
06:04 AM 1.3°F-17.1°C -6.2°F-21.2°C 70% Calm Calm -- 30.29 in1025.7 mb 0.00 in0.0 mm 0.00 in0.0 mm 0.00 in0.0 mm
06:06 AM 1.3°F-17.1°C -6.2°F-21.2°C 70% Calm Calm -- 30.30 in1026.1 mb 0.00 in0.0 mm 0.00 in0.0 mm 0.00 in0.0 mm
06:08 AM 1.2°F-17.1°C -6.3°F-21.3°C 70% Calm Calm -- 30.29 in1025.7 mb 0.00 in0.0 mm 0.00 in0.0 mm 0.00 in0.0 mm
06:10 AM 1.2°F-17.1°C -6.3°F-21.3°C 70% Calm Calm -- 30.30 in1026.1 mb 0.00 in0.0 mm 0.00 in0.0 mm 0.00 in0.0 mm
06:12 AM 1.1°F-17.2°C -6.4°F-21.3°C 70% Calm Calm -- 30.30 in1026.1 mb 0.00 in0.0 mm 0.00 in0.0 mm 0.00 in0.0 mm
06:14 AM 1.0°F-17.2°C -6.5°F-21.4°C 70% Calm Calm -- 30.30 in1026.1 mb 0.00 in0.0 mm 0.00 in0.0 mm 0.00 in0.0 mm
06:16 AM 0.9°F-17.3°C -6.6°F-21.4°C 70% Calm Calm -- 30.30 in1026.1 mb 0.00 in0.0 mm 0.00 in0.0 mm 0.00 in0.0 mm
06:18 AM 0.8°F-17.3°C -6.7°F-21.5°C 70% Calm Calm -- 30.30 in1026.1 mb 0.00 in0.0 mm 0.00 in0.0 mm 0.00 in0.0 mm
06:20 AM 0.6°F-17.4°C -6.9°F-21.6°C 70% Calm Calm -- 30.30 in1026.1 mb 0.00 in0.0 mm 0.00 in0.0 mm 0.00 in0.0 mm
06:22 AM 0.5°F-17.5°C -6.7°F-21.5°C 71% Calm Calm -- 30.30 in1026.1 mb 0.00 in0.0 mm 0.00 in0.0 mm 0.00 in0.0 mm
06:26 AM 0.4°F-17.6°C -6.8°F-21.6°C 71% Calm Calm -- 30.30 in1026.1 mb 0.00 in0.0 mm 0.00 in0.0 mm 0.00 in0.0 mm
06:28 AM 0.3°F-17.6°C -6.6°F-21.4°C 72% Calm Calm -- 30.30 in1026.1 mb 0.00 in0.0 mm 0.00 in0.0 mm 0.00 in0.0 mm
06:30 AM 0.2°F-17.7°C -6.7°F-21.5°C 72% Calm Calm -- 30.30 in1026.1 mb 0.00 in0.0 mm 0.00 in0.0 mm 0.00 in0.0 mm
06:32 AM 0.2°F-17.7°C -6.7°F-21.5°C 72% Calm Calm -- 30.30 in1026.1 mb 0.00 in0.0 mm 0.00 in0.0 mm 0.00 in0.0 mm
06:34 AM 0.1°F-17.7°C -6.8°F-21.6°C 72% Calm Calm -- 30.30 in1026.1 mb 0.00 in0.0 mm 0.00 in0.0 mm 0.00 in0.0 mm
06:36 AM 0.1°F-17.7°C -6.5°F-21.4°C 73% Calm Calm 1.0 mph1.6 kmh 30.30 in1026.1 mb 0.00 in0.0 mm 0.00 in0.0 mm 0.00 in0.0 mm
06:38 AM 0.1°F-17.7°C -6.5°F-21.4°C 73% Calm Calm -- 30.30 in1026.1 mb 0.00 in0.0 mm 0.00 in0.0 mm 0.00 in0.0 mm
06:40 AM 0.1°F-17.7°C -6.5°F-21.4°C 73% Calm Calm -- 30.30 in1026.1 mb 0.00 in0.0 mm 0.00 in0.0 mm 0.00 in0.0 mm
06:42 AM 0.2°F-17.7°C -6.7°F-21.5°C 72% Calm Calm -- 30.30 in1026.1 mb 0.00 in0.0 mm 0.00 in0.0 mm 0.00 in0.0 mm
06:44 AM 0.2°F-17.7°C -6.4°F-21.3°C 73% Calm Calm -- 30.30 in1026.1 mb 0.00 in0.0 mm 0.00 in0.0 mm 0.00 in0.0 mm
06:46 AM 0.2°F-17.7°C -6.7°F-21.5°C 72% Calm Calm -- 30.30 in1026.1 mb 0.00 in0.0 mm 0.00 in0.0 mm 0.00 in0.0 mm
06:48 AM 0.2°F-17.7°C -6.7°F-21.5°C 72% Calm Calm -- 30.31 in1026.4 mb 0.00 in0.0 mm 0.00 in0.0 mm 0.00 in0.0 mm
06:50 AM 0.1°F-17.7°C -6.8°F-21.6°C 72% Calm Calm -- 30.30 in1026.1 mb 0.00 in0.0 mm 0.00 in0.0 mm 0.00 in0.0 mm
06:52 AM 0.1°F-17.7°C -6.9°F-21.6°C 72% Calm Calm -- 30.30 in1026.1 mb 0.00 in0.0 mm 0.00 in0.0 mm 0.00 in0.0 mm
06:54 AM 0.1°F-17.7°C -6.9°F-21.6°C 72% Calm Calm -- 30.30 in1026.1 mb 0.00 in0.0 mm 0.00 in0.0 mm 0.00 in0.0 mm
06:56 AM 0.1°F-17.7°C -6.9°F-21.6°C 72% Calm Calm -- 30.30 in1026.1 mb 0.00 in0.0 mm 0.00 in0.0 mm 0.00 in0.0 mm
06:58 AM -0.1°F-17.8°C -7.0°F-21.7°C 72% Calm Calm -- 30.31 in1026.4 mb 0.00 in0.0 mm 0.00 in0.0 mm 0.00 in0.0 mm
07:04 AM -0.1°F-17.8°C -6.7°F-21.5°C 73% 1.0 mph NNW1.6 kmh NNW 4.0 mph6.4 kmh 30.30 in1026.1 mb 0.00 in0.0 mm 0.00 in0.0 mm 0.00 in0.0 mm
07:06 AM -0.1°F-17.8°C -6.7°F-21.5°C 73% 5.0 mph N8.0 kmh N 5.0 mph8.0 kmh 30.30 in1026.1 mb 0.00 in0.0 mm 0.00 in0.0 mm 0.00 in0.0 mm
07:08 AM -0.1°F-17.8°C -6.7°F-21.5°C 73% 3.0 mph NNW4.8 kmh NNW 3.0 mph4.8 kmh 30.30 in1026.1 mb 0.00 in0.0 mm 0.00 in0.0 mm 0.00 in0.0 mm
07:10 AM -0.1°F-17.8°C -6.6°F-21.4°C 73% 2.0 mph NW3.2 kmh NW 7.0 mph11.3 kmh 30.30 in1026.1 mb 0.00 in0.0 mm 0.00 in0.0 mm 0.00 in0.0 mm
07:12 AM -0.1°F-17.8°C -6.9°F-21.6°C 72% Calm Calm 4.0 mph6.4 kmh 30.30 in1026.1 mb 0.00 in0.0 mm 0.00 in0.0 mm 0.00 in0.0 mm
07:14 AM 0.1°F-17.7°C -6.8°F-21.6°C 72% 3.0 mph N4.8 kmh N 4.0 mph6.4 kmh 30.30 in1026.1 mb 0.00 in0.0 mm 0.00 in0.0 mm 0.00 in0.0 mm
07:16 AM 0.3°F-17.6°C -6.6°F-21.4°C 72% 6.0 mph NW9.7 kmh NW 6.0 mph9.7 kmh 30.30 in1026.1 mb 0.00 in0.0 mm 0.00 in0.0 mm 0.00 in0.0 mm
07:18 AM 0.5°F-17.5°C -6.7°F-21.5°C 71% 5.0 mph NW8.0 kmh NW 5.0 mph8.0 kmh 30.30 in1026.1 mb 0.00 in0.0 mm 0.00 in0.0 mm 0.00 in0.0 mm
07:20 AM 0.6°F-17.4°C -6.6°F-21.4°C 71% 4.0 mph W6.4 kmh W 7.0 mph11.3 kmh 30.30 in1026.1 mb 0.00 in0.0 mm 0.00 in0.0 mm 0.00 in0.0 mm
07:22 AM 0.8°F-17.3°C -6.7°F-21.5°C 70% 3.0 mph NNW4.8 kmh NNW 6.0 mph9.7 kmh 30.30 in1026.1 mb 0.00 in0.0 mm 0.00 in0.0 mm 0.00 in0.0 mm
07:24 AM 1.0°F-17.2°C -6.5°F-21.4°C 70% 7.0 mph NW11.3 kmh NW 7.0 mph11.3 kmh 30.30 in1026.1 mb 0.00 in0.0 mm 0.00 in0.0 mm 0.00 in0.0 mm
07:26 AM 1.1°F-17.2°C -6.7°F-21.5°C 69% 2.0 mph NW3.2 kmh NW 11.0 mph17.7 kmh 30.30 in1026.1 mb 0.00 in0.0 mm 0.00 in0.0 mm 0.00 in0.0 mm
07:28 AM 1.3°F-17.1°C -6.5°F-21.4°C 69% 3.0 mph NW4.8 kmh NW 3.0 mph4.8 kmh 30.30 in1026.1 mb 0.00 in0.0 mm 0.00 in0.0 mm 0.00 in0.0 mm
07:30 AM 1.4°F-17.0°C -6.4°F-21.3°C 69% 11.0 mph W17.7 kmh W 12.0 mph19.3 kmh 30.30 in1026.1 mb 0.00 in0.0 mm 0.00 in0.0 mm 0.00 in0.0 mm
07:32 AM 1.5°F-16.9°C -6.6°F-21.4°C 68% 6.0 mph NW9.7 kmh NW 6.0 mph9.7 kmh 30.31 in1026.4 mb 0.00 in0.0 mm 0.00 in0.0 mm 0.00 in0.0 mm
07:34 AM 1.6°F-16.9°C -6.8°F-21.6°C 67% Calm Calm 1.0 mph1.6 kmh 30.30 in1026.1 mb 0.00 in0.0 mm 0.00 in0.0 mm 0.00 in0.0 mm
07:36 AM 1.7°F-16.8°C -6.7°F-21.5°C 67% Calm Calm -- 30.30 in1026.1 mb 0.00 in0.0 mm 0.00 in0.0 mm 0.00 in0.0 mm
07:38 AM 1.7°F-16.8°C -6.7°F-21.5°C 67% Calm Calm -- 30.31 in1026.4 mb 0.00 in0.0 mm 0.00 in0.0 mm 0.00 in0.0 mm
07:40 AM 1.7°F-16.8°C -6.7°F-21.5°C 67% Calm Calm 1.0 mph1.6 kmh 30.31 in1026.4 mb 0.00 in0.0 mm 0.00 in0.0 mm 0.00 in0.0 mm
07:42 AM 1.7°F-16.8°C -6.7°F-21.5°C 67% 2.0 mph NW3.2 kmh NW 7.0 mph11.3 kmh 30.31 in1026.4 mb 0.00 in0.0 mm 0.00 in0.0 mm 0.00 in0.0 mm
07:44 AM 1.8°F-16.8°C -6.9°F-21.6°C 66% 2.0 mph WNW3.2 kmh WNW 9.0 mph14.5 kmh 30.31 in1026.4 mb 0.00 in0.0 mm 0.00 in0.0 mm 0.00 in0.0 mm
07:46 AM 1.8°F-16.8°C -6.9°F-21.6°C 66% 2.0 mph NW3.2 kmh NW 4.0 mph6.4 kmh 30.31 in1026.4 mb 0.00 in0.0 mm 0.00 in0.0 mm 0.00 in0.0 mm
07:48 AM 1.8°F-16.8°C -6.9°F-21.6°C 66% 2.0 mph W3.2 kmh W 5.0 mph8.0 kmh 30.31 in1026.4 mb 0.00 in0.0 mm 0.00 in0.0 mm 0.00 in0.0 mm
07:50 AM 1.8°F-16.8°C -6.9°F-21.6°C 66% 9.0 mph W14.5 kmh W 9.0 mph14.5 kmh 30.31 in1026.4 mb 0.00 in0.0 mm 0.00 in0.0 mm 0.00 in0.0 mm
07:52 AM 1.8°F-16.8°C -6.9°F-21.6°C 66% 2.0 mph WNW3.2 kmh WNW 6.0 mph9.7 kmh 30.31 in1026.4 mb 0.00 in0.0 mm 0.00 in0.0 mm 0.00 in0.0 mm
07:54 AM 1.8°F-16.8°C -6.9°F-21.6°C 66% Calm Calm 6.0 mph9.7 kmh 30.31 in1026.4 mb 0.00 in0.0 mm 0.00 in0.0 mm 0.00 in0.0 mm
07:56 AM 1.8°F-16.8°C -6.9°F-21.6°C 66% 4.0 mph NNW6.4 kmh NNW 4.0 mph6.4 kmh 30.31 in1026.4 mb 0.00 in0.0 mm 0.00 in0.0 mm 0.00 in0.0 mm
07:58 AM 1.8°F-16.8°C -6.9°F-21.6°C 66% 4.0 mph NNW6.4 kmh NNW 4.0 mph6.4 kmh 30.31 in1026.4 mb 0.00 in0.0 mm 0.00 in0.0 mm 0.00 in0.0 mm
08:00 AM 1.8°F-16.8°C -6.9°F-21.6°C 66% 5.0 mph NW8.0 kmh NW 5.0 mph8.0 kmh 30.31 in1026.4 mb 0.00 in0.0 mm 0.00 in0.0 mm 0.00 in0.0 mm
08:02 AM 1.8°F-16.8°C -6.9°F-21.6°C 66% 7.0 mph NNW11.3 kmh NNW 7.0 mph11.3 kmh 30.31 in1026.4 mb 0.00 in0.0 mm 0.00 in0.0 mm 0.00 in0.0 mm
08:04 AM 1.8°F-16.8°C -7.2°F-21.8°C 65% 1.0 mph NNW1.6 kmh NNW 9.0 mph14.5 kmh 30.31 in1026.4 mb 0.00 in0.0 mm 0.00 in0.0 mm 0.00 in0.0 mm
08:06 AM 1.8°F-16.8°C -7.2°F-21.8°C 65% 2.0 mph NW3.2 kmh NW 4.0 mph6.4 kmh 30.31 in1026.4 mb 0.00 in0.0 mm 0.00 in0.0 mm 0.00 in0.0 mm
08:08 AM 1.8°F-16.8°C -7.2°F-21.8°C 65% Calm Calm 6.0 mph9.7 kmh 30.31 in1026.4 mb 0.00 in0.0 mm 0.00 in0.0 mm 0.00 in0.0 mm
08:10 AM 1.8°F-16.8°C -7.2°F-21.8°C 65% 3.0 mph NW4.8 kmh NW 5.0 mph8.0 kmh 30.31 in1026.4 mb 0.00 in0.0 mm 0.00 in0.0 mm 0.00 in0.0 mm
08:12 AM 1.7°F-16.8°C -7.3°F-21.8°C 65% Calm Calm 3.0 mph4.8 kmh 30.31 in1026.4 mb 0.00 in0.0 mm 0.00 in0.0 mm 0.00 in0.0 mm
08:14 AM 1.8°F-16.8°C -7.2°F-21.8°C 65% Calm Calm 3.0 mph4.8 kmh 30.31 in1026.4 mb 0.00 in0.0 mm 0.00 in0.0 mm 0.00 in0.0 mm
08:16 AM 1.7°F-16.8°C -7.3°F-21.8°C 65% 4.0 mph NW6.4 kmh NW 4.0 mph6.4 kmh 30.32 in1026.8 mb 0.00 in0.0 mm 0.00 in0.0 mm 0.00 in0.0 mm
08:18 AM 1.7°F-16.8°C -7.3°F-21.8°C 65% 3.0 mph NW4.8 kmh NW 3.0 mph4.8 kmh 30.32 in1026.8 mb 0.00 in0.0 mm 0.00 in0.0 mm 0.00 in0.0 mm
08:20 AM 1.7°F-16.8°C -7.3°F-21.8°C 65% Calm Calm -- 30.32 in1026.8 mb 0.00 in0.0 mm 0.00 in0.0 mm 0.00 in0.0 mm
08:22 AM 1.7°F-16.8°C -7.3°F-21.8°C 65% 4.0 mph WNW6.4 kmh WNW 5.0 mph8.0 kmh 30.32 in1026.8 mb 0.00 in0.0 mm 0.00 in0.0 mm 0.00 in0.0 mm
08:24 AM 1.7°F-16.8°C -7.3°F-21.8°C 65% Calm Calm 2.0 mph3.2 kmh 30.32 in1026.8 mb 0.00 in0.0 mm 0.00 in0.0 mm 0.00 in0.0 mm
08:26 AM 1.7°F-16.8°C -7.3°F-21.8°C 65% 1.0 mph WNW1.6 kmh WNW 7.0 mph11.3 kmh 30.32 in1026.8 mb 0.00 in0.0 mm 0.00 in0.0 mm 0.00 in0.0 mm
08:28 AM 1.7°F-16.8°C -7.3°F-21.8°C 65% Calm Calm 3.0 mph4.8 kmh 30.32 in1026.8 mb 0.00 in0.0 mm 0.00 in0.0 mm 0.00 in0.0 mm
08:30 AM 1.6°F-16.9°C -7.4°F-21.9°C 65% 2.0 mph WNW3.2 kmh WNW 2.0 mph3.2 kmh 30.32 in1026.8 mb 0.00 in0.0 mm 0.00 in0.0 mm 0.00 in0.0 mm
08:32 AM 1.6°F-16.9°C -7.4°F-21.9°C 65% 3.0 mph WNW4.8 kmh WNW 3.0 mph4.8 kmh 30.32 in1026.8 mb 0.00 in0.0 mm 0.00 in0.0 mm 0.00 in0.0 mm
08:34 AM 1.6°F-16.9°C -7.4°F-21.9°C 65% 3.0 mph WNW4.8 kmh WNW 3.0 mph4.8 kmh 30.32 in1026.8 mb 0.00 in0.0 mm 0.00 in0.0 mm 0.00 in0.0 mm
08:36 AM 1.6°F-16.9°C -7.4°F-21.9°C 65% Calm Calm -- 30.32 in1026.8 mb 0.00 in0.0 mm 0.00 in0.0 mm 0.00 in0.0 mm
08:38 AM 1.6°F-16.9°C -7.4°F-21.9°C 65% Calm Calm -- 30.32 in1026.8 mb 0.00 in0.0 mm 0.00 in0.0 mm 0.00 in0.0 mm
08:40 AM 1.6°F-16.9°C -7.4°F-21.9°C 65% 2.0 mph NW3.2 kmh NW 5.0 mph8.0 kmh 30.31 in1026.4 mb 0.00 in0.0 mm 0.00 in0.0 mm 0.00 in0.0 mm
08:42 AM 1.6°F-16.9°C -7.4°F-21.9°C 65% Calm Calm -- 30.32 in1026.8 mb 0.00 in0.0 mm 0.00 in0.0 mm 0.00 in0.0 mm
08:44 AM 1.6°F-16.9°C -7.4°F-21.9°C 65% Calm Calm -- 30.32 in1026.8 mb 0.00 in0.0 mm 0.00 in0.0 mm 0.00 in0.0 mm
08:46 AM 1.6°F-16.9°C -7.4°F-21.9°C 65% 3.0 mph NW4.8 kmh NW 6.0 mph9.7 kmh 30.32 in1026.8 mb 0.00 in0.0 mm 0.00 in0.0 mm 0.00 in0.0 mm
08:48 AM 1.6°F-16.9°C -7.4°F-21.9°C 65% Calm Calm -- 30.32 in1026.8 mb 0.00 in0.0 mm 0.00 in0.0 mm 0.00 in0.0 mm
08:50 AM 1.7°F-16.8°C -7.3°F-21.8°C 65% 2.0 mph NNW3.2 kmh NNW 2.0 mph3.2 kmh 30.32 in1026.8 mb 0.00 in0.0 mm 0.00 in0.0 mm 0.00 in0.0 mm
08:52 AM 1.6°F-16.9°C -7.4°F-21.9°C 65% 2.0 mph NNW3.2 kmh NNW 2.0 mph3.2 kmh 30.32 in1026.8 mb 0.00 in0.0 mm 0.00 in0.0 mm 0.00 in0.0 mm
08:54 AM 1.7°F-16.8°C -7.3°F-21.8°C 65% Calm Calm -- 30.32 in1026.8 mb 0.00 in0.0 mm 0.00 in0.0 mm 0.00 in0.0 mm
08:56 AM 1.7°F-16.8°C -7.3°F-21.8°C 65% 1.0 mph NNW1.6 kmh NNW 2.0 mph3.2 kmh 30.32 in1026.8 mb 0.00 in0.0 mm 0.00 in0.0 mm 0.00 in0.0 mm
08:58 AM 1.7°F-16.8°C -7.3°F-21.8°C 65% 1.0 mph NNW1.6 kmh NNW 1.0 mph1.6 kmh 30.32 in1026.8 mb 0.00 in0.0 mm 0.00 in0.0 mm 0.00 in0.0 mm
09:00 AM 1.7°F-16.8°C -7.3°F-21.8°C 65% 2.0 mph NNW3.2 kmh NNW 2.0 mph3.2 kmh 30.32 in1026.8 mb 0.00 in0.0 mm 0.00 in0.0 mm 0.00 in0.0 mm
09:02 AM 1.8°F-16.8°C -7.2°F-21.8°C 65% Calm Calm -- 30.32 in1026.8 mb 0.00 in0.0 mm 0.00 in0.0 mm 0.00 in0.0 mm
09:04 AM 1.8°F-16.8°C -7.2°F-21.8°C 65% 1.0 mph NNW1.6 kmh NNW 1.0 mph1.6 kmh 30.32 in1026.8 mb 0.00 in0.0 mm 0.00 in0.0 mm 0.00 in0.0 mm
09:06 AM 1.9°F-16.7°C -7.1°F-21.7°C 65% Calm Calm 1.0 mph1.6 kmh 30.32 in1026.8 mb 0.00 in0.0 mm 0.00 in0.0 mm 0.00 in0.0 mm
09:08 AM 1.9°F-16.7°C -7.1°F-21.7°C 65% Calm Calm 2.0 mph3.2 kmh 30.32 in1026.8 mb 0.00 in0.0 mm 0.00 in0.0 mm 0.00 in0.0 mm
09:10 AM 1.9°F-16.7°C -7.1°F-21.7°C 65% 2.0 mph NW3.2 kmh NW 3.0 mph4.8 kmh 30.32 in1026.8 mb 0.00 in0.0 mm 0.00 in0.0 mm 0.00 in0.0 mm
09:12 AM 2.0°F-16.7°C -7.0°F-21.7°C 65% Calm Calm 1.0 mph1.6 kmh 30.32 in1026.8 mb 0.00 in0.0 mm 0.00 in0.0 mm 0.00 in0.0 mm
09:14 AM 2.0°F-16.7°C -7.0°F-21.7°C 65% 5.0 mph NW8.0 kmh NW 6.0 mph9.7 kmh 30.32 in1026.8 mb 0.00 in0.0 mm 0.00 in0.0 mm 0.00 in0.0 mm
09:16 AM 2.2°F-16.6°C -6.9°F-21.6°C 65% 2.0 mph NW3.2 kmh NW 2.0 mph3.2 kmh 30.32 in1026.8 mb 0.00 in0.0 mm 0.00 in0.0 mm 0.00 in0.0 mm
09:18 AM 2.3°F-16.5°C -6.8°F-21.6°C 65% Calm Calm -- 30.32 in1026.8 mb 0.00 in0.0 mm 0.00 in0.0 mm 0.00 in0.0 mm
09:20 AM 2.4°F-16.4°C -6.7°F-21.5°C 65% Calm Calm 4.0 mph6.4 kmh 30.32 in1026.8 mb 0.00 in0.0 mm 0.00 in0.0 mm 0.00 in0.0 mm
09:22 AM 2.5°F-16.4°C -6.6°F-21.4°C 65% 1.0 mph NW1.6 kmh NW 2.0 mph3.2 kmh 30.32 in1026.8 mb 0.00 in0.0 mm 0.00 in0.0 mm 0.00 in0.0 mm
09:24 AM 2.6°F-16.3°C -6.5°F-21.4°C 65% Calm Calm -- 30.32 in1026.8 mb 0.00 in0.0 mm 0.00 in0.0 mm 0.00 in0.0 mm
09:26 AM 2.7°F-16.3°C -6.4°F-21.3°C 65% 4.0 mph NNW6.4 kmh NNW 6.0 mph9.7 kmh 30.32 in1026.8 mb 0.00 in0.0 mm 0.00 in0.0 mm 0.00 in0.0 mm
09:28 AM 2.8°F-16.2°C -6.6°F-21.4°C 64% 5.0 mph NW8.0 kmh NW 6.0 mph9.7 kmh 30.32 in1026.8 mb 0.00 in0.0 mm 0.00 in0.0 mm 0.00 in0.0 mm
09:30 AM 2.9°F-16.2°C -6.5°F-21.4°C 64% Calm Calm 3.0 mph4.8 kmh 30.32 in1026.8 mb 0.00 in0.0 mm 0.00 in0.0 mm 0.00 in0.0 mm
09:32 AM 3.0°F-16.1°C -6.4°F-21.3°C 64% Calm Calm -- 30.32 in1026.8 mb 0.00 in0.0 mm 0.00 in0.0 mm 0.00 in0.0 mm
09:34 AM 3.1°F-16.1°C -6.3°F-21.3°C 64% 1.0 mph N1.6 kmh N 2.0 mph3.2 kmh 30.32 in1026.8 mb 0.00 in0.0 mm 0.00 in0.0 mm 0.00 in0.0 mm
09:36 AM 3.2°F-16.0°C -6.2°F-21.2°C 64% 2.0 mph WNW3.2 kmh WNW 6.0 mph9.7 kmh 30.32 in1026.8 mb 0.00 in0.0 mm 0.00 in0.0 mm 0.00 in0.0 mm
09:38 AM 3.3°F-15.9°C -6.1°F-21.2°C 64% 5.0 mph W8.0 kmh W 6.0 mph9.7 kmh 30.32 in1026.8 mb 0.00 in0.0 mm 0.00 in0.0 mm 0.00 in0.0 mm
09:40 AM 3.4°F-15.9°C -6.4°F-21.3°C 63% 2.0 mph NW3.2 kmh NW 6.0 mph9.7 kmh 30.32 in1026.8 mb 0.00 in0.0 mm 0.00 in0.0 mm 0.00 in0.0 mm
09:42 AM 3.5°F-15.8°C -6.3°F-21.3°C 63% 6.0 mph NW9.7 kmh NW 11.0 mph17.7 kmh 30.32 in1026.8 mb 0.00 in0.0 mm 0.00 in0.0 mm 0.00 in0.0 mm
09:44 AM 3.6°F-15.8°C -6.2°F-21.2°C 63% 2.0 mph WSW3.2 kmh WSW 3.0 mph4.8 kmh 30.32 in1026.8 mb 0.00 in0.0 mm 0.00 in0.0 mm 0.00 in0.0 mm
09:46 AM 3.6°F-15.8°C -6.2°F-21.2°C 63% 1.0 mph WSW1.6 kmh WSW 1.0 mph1.6 kmh 30.33 in1027.1 mb 0.00 in0.0 mm 0.00 in0.0 mm 0.00 in0.0 mm
09:48 AM 3.7°F-15.7°C -6.1°F-21.2°C 63% 2.0 mph W3.2 kmh W 5.0 mph8.0 kmh 30.32 in1026.8 mb 0.00 in0.0 mm 0.00 in0.0 mm 0.00 in0.0 mm
09:50 AM 3.8°F-15.7°C -6.0°F-21.1°C 63% 4.0 mph NW6.4 kmh NW 11.0 mph17.7 kmh 30.32 in1026.8 mb 0.00 in0.0 mm 0.00 in0.0 mm 0.00 in0.0 mm
09:52 AM 3.9°F-15.6°C -6.2°F-21.2°C 62% 2.0 mph WNW3.2 kmh WNW 10.0 mph16.1 kmh 30.33 in1027.1 mb 0.00 in0.0 mm 0.00 in0.0 mm 0.00 in0.0 mm
09:54 AM 4.0°F-15.6°C -6.1°F-21.2°C 62% 3.0 mph NW4.8 kmh NW 5.0 mph8.0 kmh 30.33 in1027.1 mb 0.00 in0.0 mm 0.00 in0.0 mm 0.00 in0.0 mm
09:56 AM 4.1°F-15.5°C -6.0°F-21.1°C 62% 5.0 mph W8.0 kmh W 9.0 mph14.5 kmh 30.33 in1027.1 mb 0.00 in0.0 mm 0.00 in0.0 mm 0.00 in0.0 mm
09:58 AM 4.2°F-15.4°C -5.9°F-21.1°C 62% Calm Calm -- 30.33 in1027.1 mb 0.00 in0.0 mm 0.00 in0.0 mm 0.00 in0.0 mm
10:00 AM 4.3°F-15.4°C -5.8°F-21.0°C 62% 2.0 mph NE3.2 kmh NE 2.0 mph3.2 kmh 30.33 in1027.1 mb 0.00 in0.0 mm 0.00 in0.0 mm 0.00 in0.0 mm
10:02 AM 4.3°F-15.4°C -5.8°F-21.0°C 62% Calm Calm -- 30.33 in1027.1 mb 0.00 in0.0 mm 0.00 in0.0 mm 0.00 in0.0 mm
10:04 AM 4.4°F-15.3°C -5.7°F-20.9°C 62% Calm Calm 1.0 mph1.6 kmh 30.33 in1027.1 mb 0.00 in0.0 mm 0.00 in0.0 mm 0.00 in0.0 mm
10:06 AM 4.5°F-15.3°C -5.6°F-20.9°C 62% 5.0 mph WNW8.0 kmh WNW 6.0 mph9.7 kmh 30.33 in1027.1 mb 0.00 in0.0 mm 0.00 in0.0 mm 0.00 in0.0 mm
10:08 AM 4.7°F-15.2°C -5.8°F-21.0°C 61% 7.0 mph WSW11.3 kmh WSW 7.0 mph11.3 kmh 30.33 in1027.1 mb 0.00 in0.0 mm 0.00 in0.0 mm 0.00 in0.0 mm
10:10 AM 4.8°F-15.1°C -5.7°F-20.9°C 61% 3.0 mph NW4.8 kmh NW 10.0 mph16.1 kmh 30.33 in1027.1 mb 0.00 in0.0 mm 0.00 in0.0 mm 0.00 in0.0 mm
10:12 AM 4.9°F-15.1°C -5.6°F-20.9°C 61% 3.0 mph NW4.8 kmh NW 5.0 mph8.0 kmh 30.33 in1027.1 mb 0.00 in0.0 mm 0.00 in0.0 mm 0.00 in0.0 mm
10:16 AM 5.1°F-14.9°C -5.7°F-20.9°C 60% Calm Calm 1.0 mph1.6 kmh 30.33 in1027.1 mb 0.00 in0.0 mm 0.00 in0.0 mm 0.00 in0.0 mm
10:18 AM 5.1°F-14.9°C -5.7°F-20.9°C 60% 5.0 mph WSW8.0 kmh WSW 5.0 mph8.0 kmh 30.33 in1027.1 mb 0.00 in0.0 mm 0.00 in0.0 mm 0.00 in0.0 mm
10:20 AM 5.2°F-14.9°C -5.7°F-20.9°C 60% 6.0 mph NNW9.7 kmh NNW 6.0 mph9.7 kmh 30.33 in1027.1 mb 0.00 in0.0 mm 0.00 in0.0 mm 0.00 in0.0 mm
10:22 AM 5.3°F-14.8°C -5.6°F-20.9°C 60% 2.0 mph NW3.2 kmh NW 8.0 mph12.9 kmh 30.33 in1027.1 mb 0.00 in0.0 mm 0.00 in0.0 mm 0.00 in0.0 mm
10:24 AM 5.4°F-14.8°C -5.5°F-20.8°C 60% 1.0 mph NW1.6 kmh NW 1.0 mph1.6 kmh 30.33 in1027.1 mb 0.00 in0.0 mm 0.00 in0.0 mm 0.00 in0.0 mm
10:26 AM 5.4°F-14.8°C -5.5°F-20.8°C 60% 2.0 mph NNW3.2 kmh NNW 7.0 mph11.3 kmh 30.33 in1027.1 mb 0.00 in0.0 mm 0.00 in0.0 mm 0.00 in0.0 mm
10:28 AM 5.5°F-14.7°C -5.4°F-20.8°C 60% 4.0 mph NW6.4 kmh NW 4.0 mph6.4 kmh 30.33 in1027.1 mb 0.00 in0.0 mm 0.00 in0.0 mm 0.00 in0.0 mm
10:30 AM 5.6°F-14.7°C -5.3°F-20.7°C 60% 4.0 mph W6.4 kmh W 5.0 mph8.0 kmh 30.33 in1027.1 mb 0.00 in0.0 mm 0.00 in0.0 mm 0.00 in0.0 mm
10:32 AM 5.7°F-14.6°C -5.2°F-20.7°C 60% 3.0 mph WSW4.8 kmh WSW 5.0 mph8.0 kmh 30.33 in1027.1 mb 0.00 in0.0 mm 0.00 in0.0 mm 0.00 in0.0 mm
10:34 AM 5.8°F-14.6°C -5.1°F-20.6°C 60% 6.0 mph W9.7 kmh W 6.0 mph9.7 kmh 30.33 in1027.1 mb 0.00 in0.0 mm 0.00 in0.0 mm 0.00 in0.0 mm
10:36 AM 5.9°F-14.5°C -5.3°F-20.7°C 59% 3.0 mph NW4.8 kmh NW 3.0 mph4.8 kmh 30.34 in1027.4 mb 0.00 in0.0 mm 0.00 in0.0 mm 0.00 in0.0 mm
10:38 AM 6.0°F-14.4°C -5.2°F-20.7°C 59% Calm Calm 1.0 mph1.6 kmh 30.34 in1027.4 mb 0.00 in0.0 mm 0.00 in0.0 mm 0.00 in0.0 mm
10:40 AM 6.1°F-14.4°C -5.1°F-20.6°C 59% 2.0 mph N3.2 kmh N 2.0 mph3.2 kmh 30.34 in1027.4 mb 0.00 in0.0 mm 0.00 in0.0 mm 0.00 in0.0 mm
10:42 AM 6.2°F-14.3°C -5.1°F-20.6°C 59% 1.0 mph N1.6 kmh N 2.0 mph3.2 kmh 30.34 in1027.4 mb 0.00 in0.0 mm 0.00 in0.0 mm 0.00 in0.0 mm
10:44 AM 6.3°F-14.3°C -5.0°F-20.6°C 59% Calm Calm -- 30.34 in1027.4 mb 0.00 in0.0 mm 0.00 in0.0 mm 0.00 in0.0 mm
10:48 AM 6.4°F-14.2°C -5.2°F-20.7°C 58% 2.0 mph W3.2 kmh W 2.0 mph3.2 kmh 30.34 in1027.4 mb 0.00 in0.0 mm 0.00 in0.0 mm 0.00 in0.0 mm
10:50 AM 6.5°F-14.2°C -5.1°F-20.6°C 58% 2.0 mph NNW3.2 kmh NNW 5.0 mph8.0 kmh 30.34 in1027.4 mb 0.00 in0.0 mm 0.00 in0.0 mm 0.00 in0.0 mm
10:52 AM 6.7°F-14.1°C -4.9°F-20.5°C 58% 9.0 mph NNW14.5 kmh NNW 9.0 mph14.5 kmh 30.33 in1027.1 mb 0.00 in0.0 mm 0.00 in0.0 mm 0.00 in0.0 mm
10:54 AM 6.8°F-14.0°C -4.8°F-20.4°C 58% 1.0 mph NNW1.6 kmh NNW 1.0 mph1.6 kmh 30.33 in1027.1 mb 0.00 in0.0 mm 0.00 in0.0 mm 0.00 in0.0 mm
10:56 AM 6.9°F-13.9°C -4.7°F-20.4°C 58% 2.0 mph NNW3.2 kmh NNW 2.0 mph3.2 kmh 30.33 in1027.1 mb 0.00 in0.0 mm 0.00 in0.0 mm 0.00 in0.0 mm
10:58 AM 6.9°F-13.9°C -4.7°F-20.4°C 58% 3.0 mph SW4.8 kmh SW 6.0 mph9.7 kmh 30.33 in1027.1 mb 0.00 in0.0 mm 0.00 in0.0 mm 0.00 in0.0 mm
11:00 AM 7.1°F-13.8°C -4.6°F-20.3°C 58% 4.0 mph W6.4 kmh W 4.0 mph6.4 kmh 30.33 in1027.1 mb 0.00 in0.0 mm 0.00 in0.0 mm 0.00 in0.0 mm
11:02 AM 7.2°F-13.8°C -4.5°F-20.3°C 58% 3.0 mph W4.8 kmh W 3.0 mph4.8 kmh 30.33 in1027.1 mb 0.00 in0.0 mm 0.00 in0.0 mm 0.00 in0.0 mm
11:04 AM 7.4°F-13.7°C -3.6°F-19.8°C 60% 4.0 mph W6.4 kmh W 4.0 mph6.4 kmh 30.33 in1027.1 mb 0.00 in0.0 mm 0.00 in0.0 mm 0.00 in0.0 mm
11:06 AM 7.5°F-13.6°C -3.1°F-19.5°C 61% 1.0 mph W1.6 kmh W 3.0 mph4.8 kmh 30.33 in1027.1 mb 0.00 in0.0 mm 0.00 in0.0 mm 0.00 in0.0 mm
11:08 AM 7.7°F-13.5°C -3.3°F-19.6°C 60% 3.0 mph WNW4.8 kmh WNW 3.0 mph4.8 kmh 30.33 in1027.1 mb 0.00 in0.0 mm 0.00 in0.0 mm 0.00 in0.0 mm
11:10 AM 7.8°F-13.4°C -2.8°F-19.3°C 61% 4.0 mph W6.4 kmh W 4.0 mph6.4 kmh 30.33 in1027.1 mb 0.00 in0.0 mm 0.00 in0.0 mm 0.00 in0.0 mm
11:12 AM 8.0°F-13.3°C -2.7°F-19.3°C 61% 4.0 mph WNW6.4 kmh WNW 6.0 mph9.7 kmh 30.33 in1027.1 mb 0.00 in0.0 mm 0.00 in0.0 mm 0.00 in0.0 mm
11:14 AM 8.2°F-13.2°C -2.5°F-19.2°C 61% 1.0 mph WNW1.6 kmh WNW 5.0 mph8.0 kmh 30.34 in1027.4 mb 0.00 in0.0 mm 0.00 in0.0 mm 0.00 in0.0 mm
11:16 AM 8.4°F-13.1°C -2.3°F-19.1°C 61% 2.0 mph WSW3.2 kmh WSW 4.0 mph6.4 kmh 30.34 in1027.4 mb 0.00 in0.0 mm 0.00 in0.0 mm 0.00 in0.0 mm
11:18 AM 8.6°F-13.0°C -1.7°F-18.7°C 62% 3.0 mph WNW4.8 kmh WNW 3.0 mph4.8 kmh 30.33 in1027.1 mb 0.00 in0.0 mm 0.00 in0.0 mm 0.00 in0.0 mm
11:20 AM 8.8°F-12.9°C -1.9°F-18.8°C 61% 2.0 mph NW3.2 kmh NW 2.0 mph3.2 kmh 30.34 in1027.4 mb 0.00 in0.0 mm 0.00 in0.0 mm 0.00 in0.0 mm
11:22 AM 8.9°F-12.8°C -2.1°F-18.9°C 60% 2.0 mph WSW3.2 kmh WSW 4.0 mph6.4 kmh 30.33 in1027.1 mb 0.00 in0.0 mm 0.00 in0.0 mm 0.00 in0.0 mm
11:24 AM 9.0°F-12.8°C -2.8°F-19.3°C 58% 4.0 mph NW6.4 kmh NW 4.0 mph6.4 kmh 30.33 in1027.1 mb 0.00 in0.0 mm 0.00 in0.0 mm 0.00 in0.0 mm
11:26 AM 9.1°F-12.7°C -2.7°F-19.3°C 58% 1.0 mph NW1.6 kmh NW 3.0 mph4.8 kmh 30.33 in1027.1 mb 0.00 in0.0 mm 0.00 in0.0 mm 0.00 in0.0 mm
11:28 AM 9.4°F-12.6°C -2.8°F-19.3°C 57% 2.0 mph SW3.2 kmh SW 3.0 mph4.8 kmh 30.33 in1027.1 mb 0.00 in0.0 mm 0.00 in0.0 mm 0.00 in0.0 mm
11:30 AM 9.5°F-12.5°C -2.7°F-19.3°C 57% 5.0 mph W8.0 kmh W 9.0 mph14.5 kmh 30.33 in1027.1 mb 0.00 in0.0 mm 0.00 in0.0 mm 0.00 in0.0 mm
11:32 AM 9.8°F-12.3°C -2.7°F-19.3°C 56% 12.0 mph WSW19.3 kmh WSW 12.0 mph19.3 kmh 30.33 in1027.1 mb 0.00 in0.0 mm 0.00 in0.0 mm 0.00 in0.0 mm
11:34 AM 9.9°F-12.3°C -2.7°F-19.3°C 56% 5.0 mph WNW8.0 kmh WNW 5.0 mph8.0 kmh 30.33 in1027.1 mb 0.00 in0.0 mm 0.00 in0.0 mm 0.00 in0.0 mm
11:36 AM 10.0°F-12.2°C -2.9°F-19.4°C 55% 4.0 mph WNW6.4 kmh WNW 6.0 mph9.7 kmh 30.33 in1027.1 mb 0.00 in0.0 mm 0.00 in0.0 mm 0.00 in0.0 mm
11:38 AM 10.1°F-12.2°C -2.8°F-19.3°C 55% 3.0 mph W4.8 kmh W 3.0 mph4.8 kmh 30.33 in1027.1 mb 0.00 in0.0 mm 0.00 in0.0 mm 0.00 in0.0 mm
11:40 AM 10.3°F-12.1°C -2.7°F-19.3°C 55% 9.0 mph NW14.5 kmh NW 10.0 mph16.1 kmh 30.33 in1027.1 mb 0.00 in0.0 mm 0.00 in0.0 mm 0.00 in0.0 mm
11:42 AM 10.4°F-12.0°C -2.9°F-19.4°C 54% 2.0 mph WSW3.2 kmh WSW 9.0 mph14.5 kmh 30.33 in1027.1 mb 0.00 in0.0 mm 0.00 in0.0 mm 0.00 in0.0 mm
11:44 AM 10.5°F-11.9°C -2.9°F-19.4°C 54% 2.0 mph NW3.2 kmh NW 3.0 mph4.8 kmh 30.33 in1027.1 mb 0.00 in0.0 mm 0.00 in0.0 mm 0.00 in0.0 mm
11:46 AM 10.7°F-11.8°C -2.3°F-19.1°C 55% 2.0 mph NW3.2 kmh NW 4.0 mph6.4 kmh 30.32 in1026.8 mb 0.00 in0.0 mm 0.00 in0.0 mm 0.00 in0.0 mm
11:48 AM 10.8°F-11.8°C -2.2°F-19.0°C 55% 3.0 mph NNW4.8 kmh NNW 7.0 mph11.3 kmh 30.32 in1026.8 mb 0.00 in0.0 mm 0.00 in0.0 mm 0.00 in0.0 mm
11:50 AM 10.9°F-11.7°C -2.1°F-18.9°C 55% 3.0 mph NW4.8 kmh NW 5.0 mph8.0 kmh 30.32 in1026.8 mb 0.00 in0.0 mm 0.00 in0.0 mm 0.00 in0.0 mm
11:52 AM 11.0°F-11.7°C -2.4°F-19.1°C 54% 2.0 mph NNW3.2 kmh NNW 4.0 mph6.4 kmh 30.32 in1026.8 mb 0.00 in0.0 mm 0.00 in0.0 mm 0.00 in0.0 mm
11:54 AM 11.0°F-11.7°C -2.4°F-19.1°C 54% 2.0 mph NW3.2 kmh NW 2.0 mph3.2 kmh 30.32 in1026.8 mb 0.00 in0.0 mm 0.00 in0.0 mm 0.00 in0.0 mm
11:56 AM 11.1°F-11.6°C -2.7°F-19.3°C 53% 5.0 mph NW8.0 kmh NW 5.0 mph8.0 kmh 30.32 in1026.8 mb 0.00 in0.0 mm 0.00 in0.0 mm 0.00 in0.0 mm
11:58 AM 11.2°F-11.6°C -2.6°F-19.2°C 53% 7.0 mph W11.3 kmh W 12.0 mph19.3 kmh 30.32 in1026.8 mb 0.00 in0.0 mm 0.00 in0.0 mm 0.00 in0.0 mm
12:00 PM 11.2°F-11.6°C -3.0°F-19.4°C 52% 3.0 mph NW4.8 kmh NW 8.0 mph12.9 kmh 30.32 in1026.8 mb 0.00 in0.0 mm 0.00 in0.0 mm 0.00 in0.0 mm
12:02 PM 11.2°F-11.6°C -3.0°F-19.4°C 52% 4.0 mph WNW6.4 kmh WNW 4.0 mph6.4 kmh 30.31 in1026.4 mb 0.00 in0.0 mm 0.00 in0.0 mm 0.00 in0.0 mm
12:04 PM 11.2°F-11.6°C -3.0°F-19.4°C 52% 3.0 mph NW4.8 kmh NW 9.0 mph14.5 kmh 30.31 in1026.4 mb 0.00 in0.0 mm 0.00 in0.0 mm 0.00 in0.0 mm
12:06 PM 11.2°F-11.6°C -3.0°F-19.4°C 52% 3.0 mph WNW4.8 kmh WNW 6.0 mph9.7 kmh 30.31 in1026.4 mb 0.00 in0.0 mm 0.00 in0.0 mm 0.00 in0.0 mm
12:08 PM 11.3°F-11.5°C -2.9°F-19.4°C 52% 5.0 mph NW8.0 kmh NW 10.0 mph16.1 kmh 30.31 in1026.4 mb 0.00 in0.0 mm 0.00 in0.0 mm 0.00 in0.0 mm
12:10 PM 11.3°F-11.5°C -2.9°F-19.4°C 52% 2.0 mph NNW3.2 kmh NNW 4.0 mph6.4 kmh 30.31 in1026.4 mb 0.00 in0.0 mm 0.00 in0.0 mm 0.00 in0.0 mm
12:12 PM 11.4°F-11.4°C -2.8°F-19.3°C 52% 3.0 mph N4.8 kmh N 9.0 mph14.5 kmh 30.31 in1026.4 mb 0.00 in0.0 mm 0.00 in0.0 mm 0.00 in0.0 mm
12:14 PM 11.4°F-11.4°C -2.8°F-19.3°C 52% 9.0 mph WNW14.5 kmh WNW 9.0 mph14.5 kmh 30.31 in1026.4 mb 0.00 in0.0 mm 0.00 in0.0 mm 0.00 in0.0 mm
12:16 PM 11.5°F-11.4°C -3.1°F-19.5°C 51% 3.0 mph NW4.8 kmh NW 9.0 mph14.5 kmh 30.31 in1026.4 mb 0.00 in0.0 mm 0.00 in0.0 mm 0.00 in0.0 mm
12:18 PM 11.5°F-11.4°C -3.1°F-19.5°C 51% 3.0 mph NW4.8 kmh NW 5.0 mph8.0 kmh 30.31 in1026.4 mb 0.00 in0.0 mm 0.00 in0.0 mm 0.00 in0.0 mm
12:20 PM 11.6°F-11.3°C -3.0°F-19.4°C 51% 3.0 mph WNW4.8 kmh WNW 11.0 mph17.7 kmh 30.31 in1026.4 mb 0.00 in0.0 mm 0.00 in0.0 mm 0.00 in0.0 mm
12:22 PM 11.7°F-11.3°C -2.9°F-19.4°C 51% 5.0 mph NW8.0 kmh NW 8.0 mph12.9 kmh 30.31 in1026.4 mb 0.00 in0.0 mm 0.00 in0.0 mm 0.00 in0.0 mm
12:24 PM 11.8°F-11.2°C -2.8°F-19.3°C 51% 6.0 mph NW9.7 kmh NW 12.0 mph19.3 kmh 30.31 in1026.4 mb 0.00 in0.0 mm 0.00 in0.0 mm 0.00 in0.0 mm
12:26 PM 11.8°F-11.2°C -2.8°F-19.3°C 51% 6.0 mph NNW9.7 kmh NNW 14.0 mph22.5 kmh 30.31 in1026.4 mb 0.00 in0.0 mm 0.00 in0.0 mm 0.00 in0.0 mm
12:28 PM 11.8°F-11.2°C -2.8°F-19.3°C 51% 5.0 mph WSW8.0 kmh WSW 6.0 mph9.7 kmh 30.31 in1026.4 mb 0.00 in0.0 mm 0.00 in0.0 mm 0.00 in0.0 mm
12:30 PM 11.8°F-11.2°C -2.8°F-19.3°C 51% 6.0 mph NW9.7 kmh NW 7.0 mph11.3 kmh 30.30 in1026.1 mb 0.00 in0.0 mm 0.00 in0.0 mm 0.00 in0.0 mm
12:32 PM 11.9°F-11.2°C -2.7°F-19.3°C 51% 8.0 mph NNW12.9 kmh NNW 8.0 mph12.9 kmh 30.30 in1026.1 mb 0.00 in0.0 mm 0.00 in0.0 mm 0.00 in0.0 mm
12:34 PM 12.0°F-11.1°C -2.7°F-19.3°C 51% 5.0 mph NW8.0 kmh NW 11.0 mph17.7 kmh 30.30 in1026.1 mb 0.00 in0.0 mm 0.00 in0.0 mm 0.00 in0.0 mm
12:36 PM 12.1°F-11.1°C -2.6°F-19.2°C 51% 9.0 mph NW14.5 kmh NW 11.0 mph17.7 kmh 30.30 in1026.1 mb 0.00 in0.0 mm 0.00 in0.0 mm 0.00 in0.0 mm
12:38 PM 12.1°F-11.1°C -2.6°F-19.2°C 51% 4.0 mph N6.4 kmh N 4.0 mph6.4 kmh 30.30 in1026.1 mb 0.00 in0.0 mm 0.00 in0.0 mm 0.00 in0.0 mm
12:40 PM 12.1°F-11.1°C -3.0°F-19.4°C 50% 4.0 mph NW6.4 kmh NW 4.0 mph6.4 kmh 30.30 in1026.1 mb 0.00 in0.0 mm 0.00 in0.0 mm 0.00 in0.0 mm
12:42 PM 12.2°F-11.0°C -2.5°F-19.2°C 51% 6.0 mph WNW9.7 kmh WNW 10.0 mph16.1 kmh 30.30 in1026.1 mb 0.00 in0.0 mm 0.00 in0.0 mm 0.00 in0.0 mm
12:44 PM 12.4°F-10.9°C -2.3°F-19.1°C 51% 14.0 mph NNW22.5 kmh NNW 14.0 mph22.5 kmh 30.30 in1026.1 mb 0.00 in0.0 mm 0.00 in0.0 mm 0.00 in0.0 mm
12:46 PM 12.4°F-10.9°C -3.1°F-19.5°C 49% 15.0 mph WNW24.1 kmh WNW 18.0 mph29.0 kmh 30.30 in1026.1 mb 0.00 in0.0 mm 0.00 in0.0 mm 0.00 in0.0 mm
12:48 PM 12.5°F-10.8°C -3.0°F-19.4°C 49% 9.0 mph SW14.5 kmh SW 10.0 mph16.1 kmh 30.29 in1025.7 mb 0.00 in0.0 mm 0.00 in0.0 mm 0.00 in0.0 mm
12:50 PM 12.5°F-10.8°C -3.0°F-19.4°C 49% 11.0 mph NW17.7 kmh NW 12.0 mph19.3 kmh 30.29 in1025.7 mb 0.00 in0.0 mm 0.00 in0.0 mm 0.00 in0.0 mm
12:52 PM 12.6°F-10.8°C -2.5°F-19.2°C 50% 9.0 mph NW14.5 kmh NW 9.0 mph14.5 kmh 30.30 in1026.1 mb 0.00 in0.0 mm 0.00 in0.0 mm 0.00 in0.0 mm
12:54 PM 12.7°F-10.7°C -2.8°F-19.3°C 49% 15.0 mph NW24.1 kmh NW 15.0 mph24.1 kmh 30.29 in1025.7 mb 0.00 in0.0 mm 0.00 in0.0 mm 0.00 in0.0 mm
12:56 PM 12.7°F-10.7°C -2.8°F-19.3°C 49% 6.0 mph W9.7 kmh W 13.0 mph20.9 kmh 30.29 in1025.7 mb 0.00 in0.0 mm 0.00 in0.0 mm 0.00 in0.0 mm
12:58 PM 12.8°F-10.7°C -2.3°F-19.1°C 50% 10.0 mph NW16.1 kmh NW 10.0 mph16.1 kmh 30.29 in1025.7 mb 0.00 in0.0 mm 0.00 in0.0 mm 0.00 in0.0 mm
01:00 PM 12.9°F-10.6°C -2.7°F-19.3°C 49% 15.0 mph W24.1 kmh W 15.0 mph24.1 kmh 30.29 in1025.7 mb 0.00 in0.0 mm 0.00 in0.0 mm 0.00 in0.0 mm
01:02 PM 13.0°F-10.6°C -2.6°F-19.2°C 49% 15.0 mph NW24.1 kmh NW 15.0 mph24.1 kmh 30.29 in1025.7 mb 0.00 in0.0 mm 0.00 in0.0 mm 0.00 in0.0 mm
01:04 PM 13.0°F-10.6°C -3.0°F-19.4°C 48% 8.0 mph NW12.9 kmh NW 11.0 mph17.7 kmh 30.29 in1025.7 mb 0.00 in0.0 mm 0.00 in0.0 mm 0.00 in0.0 mm
01:06 PM 13.1°F-10.5°C -2.5°F-19.2°C 49% 7.0 mph NW11.3 kmh NW 17.0 mph27.4 kmh 30.29 in1025.7 mb 0.00 in0.0 mm 0.00 in0.0 mm 0.00 in0.0 mm
01:08 PM 13.1°F-10.5°C -2.9°F-19.4°C 48% 15.0 mph WNW24.1 kmh WNW 15.0 mph24.1 kmh 30.29 in1025.7 mb 0.00 in0.0 mm 0.00 in0.0 mm 0.00 in0.0 mm
01:10 PM 13.2°F-10.4°C -2.8°F-19.3°C 48% 9.0 mph NW14.5 kmh NW 10.0 mph16.1 kmh 30.28 in1025.4 mb 0.00 in0.0 mm 0.00 in0.0 mm 0.00 in0.0 mm
01:12 PM 13.2°F-10.4°C -2.4°F-19.1°C 49% 9.0 mph WSW14.5 kmh WSW 10.0 mph16.1 kmh 30.28 in1025.4 mb 0.00 in0.0 mm 0.00 in0.0 mm 0.00 in0.0 mm
01:14 PM 13.3°F-10.4°C -2.3°F-19.1°C 49% 3.0 mph NNW4.8 kmh NNW 9.0 mph14.5 kmh 30.28 in1025.4 mb 0.00 in0.0 mm 0.00 in0.0 mm 0.00 in0.0 mm
01:16 PM 13.4°F-10.3°C -2.6°F-19.2°C 48% 7.0 mph NW11.3 kmh NW 16.0 mph25.7 kmh 30.28 in1025.4 mb 0.00 in0.0 mm 0.00 in0.0 mm 0.00 in0.0 mm
01:18 PM 13.4°F-10.3°C -3.1°F-19.5°C 47% 4.0 mph NE6.4 kmh NE 6.0 mph9.7 kmh 30.29 in1025.7 mb 0.00 in0.0 mm 0.00 in0.0 mm 0.00 in0.0 mm
01:20 PM 13.4°F-10.3°C -3.1°F-19.5°C 47% 8.0 mph NW12.9 kmh NW 13.0 mph20.9 kmh 30.28 in1025.4 mb 0.00 in0.0 mm 0.00 in0.0 mm 0.00 in0.0 mm
01:22 PM 13.4°F-10.3°C -2.6°F-19.2°C 48% 3.0 mph NNW4.8 kmh NNW 5.0 mph8.0 kmh 30.28 in1025.4 mb 0.00 in0.0 mm 0.00 in0.0 mm 0.00 in0.0 mm
01:24 PM 13.4°F-10.3°C -2.2°F-19.0°C 49% 11.0 mph NW17.7 kmh NW 11.0 mph17.7 kmh 30.28 in1025.4 mb 0.00 in0.0 mm 0.00 in0.0 mm 0.00 in0.0 mm
01:26 PM 13.4°F-10.3°C -2.6°F-19.2°C 48% 10.0 mph NW16.1 kmh NW 10.0 mph16.1 kmh 30.28 in1025.4 mb 0.00 in0.0 mm 0.00 in0.0 mm 0.00 in0.0 mm
01:28 PM 13.4°F-10.3°C -2.6°F-19.2°C 48% 6.0 mph WNW9.7 kmh WNW 16.0 mph25.7 kmh 30.28 in1025.4 mb 0.00 in0.0 mm 0.00 in0.0 mm 0.00 in0.0 mm
01:30 PM 13.5°F-10.3°C -2.5°F-19.2°C 48% 2.0 mph N3.2 kmh N 5.0 mph8.0 kmh 30.28 in1025.4 mb 0.00 in0.0 mm 0.00 in0.0 mm 0.00 in0.0 mm
01:32 PM 13.6°F-10.2°C -2.4°F-19.1°C 48% 3.0 mph N4.8 kmh N 4.0 mph6.4 kmh 30.27 in1025.1 mb 0.00 in0.0 mm 0.00 in0.0 mm 0.00 in0.0 mm
01:34 PM 13.7°F-10.2°C -1.9°F-18.8°C 49% 3.0 mph NNW4.8 kmh NNW 8.0 mph12.9 kmh 30.28 in1025.4 mb 0.00 in0.0 mm 0.00 in0.0 mm 0.00 in0.0 mm
01:36 PM 13.7°F-10.2°C -2.3°F-19.1°C 48% 5.0 mph WNW8.0 kmh WNW 7.0 mph11.3 kmh 30.28 in1025.4 mb 0.00 in0.0 mm 0.00 in0.0 mm 0.00 in0.0 mm
01:38 PM 13.8°F-10.1°C -2.3°F-19.1°C 48% 6.0 mph NW9.7 kmh NW 8.0 mph12.9 kmh 30.28 in1025.4 mb 0.00 in0.0 mm 0.00 in0.0 mm 0.00 in0.0 mm
01:40 PM 13.9°F-10.1°C -2.2°F-19.0°C 48% 7.0 mph NW11.3 kmh NW 10.0 mph16.1 kmh 30.27 in1025.1 mb 0.00 in0.0 mm 0.00 in0.0 mm 0.00 in0.0 mm
01:42 PM 14.0°F-10.0°C -2.5°F-19.2°C 47% 6.0 mph WNW9.7 kmh WNW 6.0 mph9.7 kmh 30.28 in1025.4 mb 0.00 in0.0 mm 0.00 in0.0 mm 0.00 in0.0 mm
01:44 PM 14.1°F-9.9°C -2.9°F-19.4°C 46% 12.0 mph NNW19.3 kmh NNW 12.0 mph19.3 kmh 30.28 in1025.4 mb 0.00 in0.0 mm 0.00 in0.0 mm 0.00 in0.0 mm
01:46 PM 14.3°F-9.8°C -2.7°F-19.3°C 46% 9.0 mph W14.5 kmh W 10.0 mph16.1 kmh 30.27 in1025.1 mb 0.00 in0.0 mm 0.00 in0.0 mm 0.00 in0.0 mm
01:48 PM 14.3°F-9.8°C -2.7°F-19.3°C 46% 6.0 mph NNW9.7 kmh NNW 6.0 mph9.7 kmh 30.27 in1025.1 mb 0.00 in0.0 mm 0.00 in0.0 mm 0.00 in0.0 mm
01:50 PM 14.3°F-9.8°C -2.7°F-19.3°C 46% 5.0 mph SW8.0 kmh SW 10.0 mph16.1 kmh 30.28 in1025.4 mb 0.00 in0.0 mm 0.00 in0.0 mm 0.00 in0.0 mm
01:52 PM 14.4°F-9.8°C -2.1°F-18.9°C 47% 10.0 mph NW16.1 kmh NW 17.0 mph27.4 kmh 30.28 in1025.4 mb 0.00 in0.0 mm 0.00 in0.0 mm 0.00 in0.0 mm
01:54 PM 14.4°F-9.8°C -2.6°F-19.2°C 46% 12.0 mph WNW19.3 kmh WNW 12.0 mph19.3 kmh 30.27 in1025.1 mb 0.00 in0.0 mm 0.00 in0.0 mm 0.00 in0.0 mm
01:56 PM 14.4°F-9.8°C -3.1°F-19.5°C 45% 7.0 mph WNW11.3 kmh WNW 7.0 mph11.3 kmh 30.27 in1025.1 mb 0.00 in0.0 mm 0.00 in0.0 mm 0.00 in0.0 mm
01:58 PM 14.4°F-9.8°C -3.1°F-19.5°C 45% 5.0 mph NW8.0 kmh NW 6.0 mph9.7 kmh 30.27 in1025.1 mb 0.00 in0.0 mm 0.00 in0.0 mm 0.00 in0.0 mm
02:00 PM 14.4°F-9.8°C -2.6°F-19.2°C 46% 4.0 mph NNW6.4 kmh NNW 12.0 mph19.3 kmh 30.27 in1025.1 mb 0.00 in0.0 mm 0.00 in0.0 mm 0.00 in0.0 mm
02:02 PM 14.4°F-9.8°C -3.1°F-19.5°C 45% 8.0 mph NNW12.9 kmh NNW 15.0 mph24.1 kmh 30.27 in1025.1 mb 0.00 in0.0 mm 0.00 in0.0 mm 0.00 in0.0 mm
02:04 PM 14.5°F-9.7°C -3.4°F-19.7°C 44% 9.0 mph W14.5 kmh W 9.0 mph14.5 kmh 30.27 in1025.1 mb 0.00 in0.0 mm 0.00 in0.0 mm 0.00 in0.0 mm
02:06 PM 14.5°F-9.7°C -3.0°F-19.4°C 45% 4.0 mph NW6.4 kmh NW 9.0 mph14.5 kmh 30.27 in1025.1 mb 0.00 in0.0 mm 0.00 in0.0 mm 0.00 in0.0 mm
02:08 PM 14.5°F-9.7°C -2.5°F-19.2°C 46% 1.0 mph WNW1.6 kmh WNW 7.0 mph11.3 kmh 30.27 in1025.1 mb 0.00 in0.0 mm 0.00 in0.0 mm 0.00 in0.0 mm
02:10 PM 14.6°F-9.7°C -2.4°F-19.1°C 46% 4.0 mph NW6.4 kmh NW 6.0 mph9.7 kmh 30.27 in1025.1 mb 0.00 in0.0 mm 0.00 in0.0 mm 0.00 in0.0 mm
02:12 PM 14.7°F-9.6°C -2.8°F-19.3°C 45% 4.0 mph NW6.4 kmh NW 6.0 mph9.7 kmh 30.27 in1025.1 mb 0.00 in0.0 mm 0.00 in0.0 mm 0.00 in0.0 mm
02:14 PM 14.8°F-9.6°C -2.7°F-19.3°C 45% 9.0 mph NW14.5 kmh NW 9.0 mph14.5 kmh 30.27 in1025.1 mb 0.00 in0.0 mm 0.00 in0.0 mm 0.00 in0.0 mm
02:16 PM 14.8°F-9.6°C -2.7°F-19.3°C 45% 10.0 mph NW16.1 kmh NW 10.0 mph16.1 kmh 30.27 in1025.1 mb 0.00 in0.0 mm 0.00 in0.0 mm 0.00 in0.0 mm
02:18 PM 14.9°F-9.5°C -3.1°F-19.5°C 44% 7.0 mph NNW11.3 kmh NNW 7.0 mph11.3 kmh 30.27 in1025.1 mb 0.00 in0.0 mm 0.00 in0.0 mm 0.00 in0.0 mm
02:20 PM 15.0°F-9.4°C -2.5°F-19.2°C 45% 3.0 mph NW4.8 kmh NW 15.0 mph24.1 kmh 30.27 in1025.1 mb 0.00 in0.0 mm 0.00 in0.0 mm 0.00 in0.0 mm
02:22 PM 15.1°F-9.4°C -2.9°F-19.4°C 44% 10.0 mph NW16.1 kmh NW 10.0 mph16.1 kmh 30.27 in1025.1 mb 0.00 in0.0 mm 0.00 in0.0 mm 0.00 in0.0 mm
02:24 PM 15.2°F-9.3°C -2.8°F-19.3°C 44% 10.0 mph WNW16.1 kmh WNW 10.0 mph16.1 kmh 30.27 in1025.1 mb 0.00 in0.0 mm 0.00 in0.0 mm 0.00 in0.0 mm
02:26 PM 15.3°F-9.3°C -2.7°F-19.3°C 44% 14.0 mph WNW22.5 kmh WNW 14.0 mph22.5 kmh 30.27 in1025.1 mb 0.00 in0.0 mm 0.00 in0.0 mm 0.00 in0.0 mm
02:28 PM 15.3°F-9.3°C -2.7°F-19.3°C 44% 12.0 mph NNW19.3 kmh NNW 12.0 mph19.3 kmh 30.27 in1025.1 mb 0.00 in0.0 mm 0.00 in0.0 mm 0.00 in0.0 mm
02:30 PM 15.3°F-9.3°C -2.7°F-19.3°C 44% 10.0 mph NW16.1 kmh NW 10.0 mph16.1 kmh 30.27 in1025.1 mb 0.00 in0.0 mm 0.00 in0.0 mm 0.00 in0.0 mm
02:32 PM 15.3°F-9.3°C -3.2°F-19.6°C 43% 4.0 mph NW6.4 kmh NW 7.0 mph11.3 kmh 30.27 in1025.1 mb 0.00 in0.0 mm 0.00 in0.0 mm 0.00 in0.0 mm
02:34 PM 15.3°F-9.3°C -3.2°F-19.6°C 43% 19.0 mph NW30.6 kmh NW 19.0 mph30.6 kmh 30.27 in1025.1 mb 0.00 in0.0 mm 0.00 in0.0 mm 0.00 in0.0 mm
02:36 PM 15.3°F-9.3°C -2.7°F-19.3°C 44% 5.0 mph NW8.0 kmh NW 12.0 mph19.3 kmh 30.27 in1025.1 mb 0.00 in0.0 mm 0.00 in0.0 mm 0.00 in0.0 mm
02:38 PM 15.2°F-9.3°C -2.8°F-19.3°C 44% 3.0 mph NW4.8 kmh NW 9.0 mph14.5 kmh 30.27 in1025.1 mb 0.00 in0.0 mm 0.00 in0.0 mm 0.00 in0.0 mm
02:40 PM 15.2°F-9.3°C -2.8°F-19.3°C 44% 3.0 mph NW4.8 kmh NW 5.0 mph8.0 kmh 30.27 in1025.1 mb 0.00 in0.0 mm 0.00 in0.0 mm 0.00 in0.0 mm
02:42 PM 15.2°F-9.3°C -3.3°F-19.6°C 43% 13.0 mph N20.9 kmh N 13.0 mph20.9 kmh 30.27 in1025.1 mb 0.00 in0.0 mm 0.00 in0.0 mm 0.00 in0.0 mm
02:44 PM 15.1°F-9.4°C -2.9°F-19.4°C 44% 3.0 mph NW4.8 kmh NW 3.0 mph4.8 kmh 30.27 in1025.1 mb 0.00 in0.0 mm 0.00 in0.0 mm 0.00 in0.0 mm
02:46 PM 15.0°F-9.4°C -3.0°F-19.4°C 44% 14.0 mph NW22.5 kmh NW 14.0 mph22.5 kmh 30.27 in1025.1 mb 0.00 in0.0 mm 0.00 in0.0 mm 0.00 in0.0 mm
02:48 PM 15.0°F-9.4°C -3.0°F-19.4°C 44% 13.0 mph NNE20.9 kmh NNE 15.0 mph24.1 kmh 30.27 in1025.1 mb 0.00 in0.0 mm 0.00 in0.0 mm 0.00 in0.0 mm
02:50 PM 14.9°F-9.5°C -3.1°F-19.5°C 44% 11.0 mph WNW17.7 kmh WNW 11.0 mph17.7 kmh 30.27 in1025.1 mb 0.00 in0.0 mm 0.00 in0.0 mm 0.00 in0.0 mm
02:52 PM 15.0°F-9.4°C -3.0°F-19.4°C 44% 6.0 mph NW9.7 kmh NW 6.0 mph9.7 kmh 30.27 in1025.1 mb 0.00 in0.0 mm 0.00 in0.0 mm 0.00 in0.0 mm
02:54 PM 15.0°F-9.4°C -3.0°F-19.4°C 44% 2.0 mph W3.2 kmh W 3.0 mph4.8 kmh 30.27 in1025.1 mb 0.00 in0.0 mm 0.00 in0.0 mm 0.00 in0.0 mm
02:56 PM 15.0°F-9.4°C -2.5°F-19.2°C 45% 5.0 mph N8.0 kmh N 9.0 mph14.5 kmh 30.27 in1025.1 mb 0.00 in0.0 mm 0.00 in0.0 mm 0.00 in0.0 mm
02:58 PM 15.0°F-9.4°C -2.5°F-19.2°C 45% 7.0 mph WNW11.3 kmh WNW 7.0 mph11.3 kmh 30.27 in1025.1 mb 0.00 in0.0 mm 0.00 in0.0 mm 0.00 in0.0 mm
03:00 PM 15.0°F-9.4°C -2.5°F-19.2°C 45% 11.0 mph NW17.7 kmh NW 12.0 mph19.3 kmh 30.28 in1025.4 mb 0.00 in0.0 mm 0.00 in0.0 mm 0.00 in0.0 mm
03:02 PM 15.0°F-9.4°C -2.5°F-19.2°C 45% 3.0 mph WNW4.8 kmh WNW 7.0 mph11.3 kmh 30.27 in1025.1 mb 0.00 in0.0 mm 0.00 in0.0 mm 0.00 in0.0 mm
03:04 PM 15.0°F-9.4°C -2.5°F-19.2°C 45% 7.0 mph N11.3 kmh N 7.0 mph11.3 kmh 30.27 in1025.1 mb 0.00 in0.0 mm 0.00 in0.0 mm 0.00 in0.0 mm
03:06 PM 15.1°F-9.4°C -2.4°F-19.1°C 45% 10.0 mph N16.1 kmh N 10.0 mph16.1 kmh 30.27 in1025.1 mb 0.00 in0.0 mm 0.00 in0.0 mm 0.00 in0.0 mm
03:08 PM 15.2°F-9.3°C -2.3°F-19.1°C 45% 2.0 mph NW3.2 kmh NW 4.0 mph6.4 kmh 30.27 in1025.1 mb 0.00 in0.0 mm 0.00 in0.0 mm 0.00 in0.0 mm
03:10 PM 15.2°F-9.3°C -1.9°F-18.8°C 46% 7.0 mph SW11.3 kmh SW 15.0 mph24.1 kmh 30.27 in1025.1 mb 0.00 in0.0 mm 0.00 in0.0 mm 0.00 in0.0 mm
03:12 PM 15.3°F-9.3°C -2.7°F-19.3°C 44% 6.0 mph NW9.7 kmh NW 7.0 mph11.3 kmh 30.27 in1025.1 mb 0.00 in0.0 mm 0.00 in0.0 mm 0.00 in0.0 mm
03:14 PM 15.3°F-9.3°C -2.2°F-19.0°C 45% 7.0 mph NNW11.3 kmh NNW 7.0 mph11.3 kmh 30.27 in1025.1 mb 0.00 in0.0 mm 0.00 in0.0 mm 0.00 in0.0 mm
03:16 PM 15.3°F-9.3°C -2.2°F-19.0°C 45% 11.0 mph NW17.7 kmh NW 12.0 mph19.3 kmh 30.28 in1025.4 mb 0.00 in0.0 mm 0.00 in0.0 mm 0.00 in0.0 mm
03:18 PM 15.3°F-9.3°C -2.2°F-19.0°C 45% 5.0 mph NW8.0 kmh NW 16.0 mph25.7 kmh 30.27 in1025.1 mb 0.00 in0.0 mm 0.00 in0.0 mm 0.00 in0.0 mm
03:20 PM 15.2°F-9.3°C -2.8°F-19.3°C 44% 7.0 mph NW11.3 kmh NW 12.0 mph19.3 kmh 30.27 in1025.1 mb 0.00 in0.0 mm 0.00 in0.0 mm 0.00 in0.0 mm
03:22 PM 15.2°F-9.3°C -2.8°F-19.3°C 44% 6.0 mph NW9.7 kmh NW 13.0 mph20.9 kmh 30.28 in1025.4 mb 0.00 in0.0 mm 0.00 in0.0 mm 0.00 in0.0 mm
03:24 PM 15.2°F-9.3°C -2.3°F-19.1°C 45% 3.0 mph NW4.8 kmh NW 10.0 mph16.1 kmh 30.27 in1025.1 mb 0.00 in0.0 mm 0.00 in0.0 mm 0.00 in0.0 mm
03:26 PM 15.2°F-9.3°C -2.3°F-19.1°C 45% 11.0 mph NW17.7 kmh NW 11.0 mph17.7 kmh 30.28 in1025.4 mb 0.00 in0.0 mm 0.00 in0.0 mm 0.00 in0.0 mm
03:28 PM 15.2°F-9.3°C -2.3°F-19.1°C 45% 5.0 mph W8.0 kmh W 8.0 mph12.9 kmh 30.28 in1025.4 mb 0.00 in0.0 mm 0.00 in0.0 mm 0.00 in0.0 mm
03:30 PM 15.2°F-9.3°C -2.3°F-19.1°C 45% 3.0 mph NW4.8 kmh NW 14.0 mph22.5 kmh 30.28 in1025.4 mb 0.00 in0.0 mm 0.00 in0.0 mm 0.00 in0.0 mm
03:32 PM 15.1°F-9.4°C -2.4°F-19.1°C 45% 11.0 mph NW17.7 kmh NW 15.0 mph24.1 kmh 30.28 in1025.4 mb 0.00 in0.0 mm 0.00 in0.0 mm 0.00 in0.0 mm
03:34 PM 15.1°F-9.4°C -2.4°F-19.1°C 45% 6.0 mph W9.7 kmh W 11.0 mph17.7 kmh 30.28 in1025.4 mb 0.00 in0.0 mm 0.00 in0.0 mm 0.00 in0.0 mm
03:36 PM 15.2°F-9.3°C -2.3°F-19.1°C 45% 3.0 mph WNW4.8 kmh WNW 7.0 mph11.3 kmh 30.28 in1025.4 mb 0.00 in0.0 mm 0.00 in0.0 mm 0.00 in0.0 mm
03:38 PM 15.1°F-9.4°C -2.4°F-19.1°C 45% 5.0 mph NW8.0 kmh NW 10.0 mph16.1 kmh 30.28 in1025.4 mb 0.00 in0.0 mm 0.00 in0.0 mm 0.00 in0.0 mm
03:40 PM 15.1°F-9.4°C -2.4°F-19.1°C 45% 17.0 mph W27.4 kmh W 17.0 mph27.4 kmh 30.28 in1025.4 mb 0.00 in0.0 mm 0.00 in0.0 mm 0.00 in0.0 mm
03:42 PM 15.1°F-9.4°C -2.9°F-19.4°C 44% 10.0 mph WNW16.1 kmh WNW 16.0 mph25.7 kmh 30.28 in1025.4 mb 0.00 in0.0 mm 0.00 in0.0 mm 0.00 in0.0 mm
03:44 PM 15.0°F-9.4°C -1.1°F-18.4°C 48% 6.0 mph WNW9.7 kmh WNW 13.0 mph20.9 kmh 30.28 in1025.4 mb 0.00 in0.0 mm 0.00 in0.0 mm 0.00 in0.0 mm
03:46 PM 15.0°F-9.4°C -3.0°F-19.4°C 44% 10.0 mph NW16.1 kmh NW 18.0 mph29.0 kmh 30.28 in1025.4 mb 0.00 in0.0 mm 0.00 in0.0 mm 0.00 in0.0 mm
03:48 PM 15.0°F-9.4°C -2.5°F-19.2°C 45% 6.0 mph NW9.7 kmh NW 12.0 mph19.3 kmh 30.28 in1025.4 mb 0.00 in0.0 mm 0.00 in0.0 mm 0.00 in0.0 mm
03:50 PM 14.9°F-9.5°C -2.6°F-19.2°C 45% 2.0 mph WNW3.2 kmh WNW 3.0 mph4.8 kmh 30.29 in1025.7 mb 0.00 in0.0 mm 0.00 in0.0 mm 0.00 in0.0 mm
03:52 PM 15.0°F-9.4°C -2.5°F-19.2°C 45% 11.0 mph WNW17.7 kmh WNW 14.0 mph22.5 kmh 30.29 in1025.7 mb 0.00 in0.0 mm 0.00 in0.0 mm 0.00 in0.0 mm
03:54 PM 15.0°F-9.4°C -2.5°F-19.2°C 45% 5.0 mph W8.0 kmh W 9.0 mph14.5 kmh 30.29 in1025.7 mb 0.00 in0.0 mm 0.00 in0.0 mm 0.00 in0.0 mm
03:56 PM 15.0°F-9.4°C -2.5°F-19.2°C 45% 1.0 mph NW1.6 kmh NW 12.0 mph19.3 kmh 30.28 in1025.4 mb 0.00 in0.0 mm 0.00 in0.0 mm 0.00 in0.0 mm
03:58 PM 15.0°F-9.4°C -2.5°F-19.2°C 45% 5.0 mph N8.0 kmh N 6.0 mph9.7 kmh 30.28 in1025.4 mb 0.00 in0.0 mm 0.00 in0.0 mm 0.00 in0.0 mm
04:00 PM 15.0°F-9.4°C -2.5°F-19.2°C 45% 3.0 mph NW4.8 kmh NW 5.0 mph8.0 kmh 30.28 in1025.4 mb 0.00 in0.0 mm 0.00 in0.0 mm 0.00 in0.0 mm
04:02 PM 15.0°F-9.4°C -2.0°F-18.9°C 46% 5.0 mph NW8.0 kmh NW 6.0 mph9.7 kmh 30.28 in1025.4 mb 0.00 in0.0 mm 0.00 in0.0 mm 0.00 in0.0 mm
04:04 PM 15.0°F-9.4°C -2.0°F-18.9°C 46% 2.0 mph NW3.2 kmh NW 10.0 mph16.1 kmh 30.28 in1025.4 mb 0.00 in0.0 mm 0.00 in0.0 mm 0.00 in0.0 mm
04:06 PM 15.0°F-9.4°C -2.0°F-18.9°C 46% 11.0 mph WNW17.7 kmh WNW 12.0 mph19.3 kmh 30.29 in1025.7 mb 0.00 in0.0 mm 0.00 in0.0 mm 0.00 in0.0 mm
04:08 PM 15.0°F-9.4°C -2.5°F-19.2°C 45% 14.0 mph WNW22.5 kmh WNW 14.0 mph22.5 kmh 30.29 in1025.7 mb 0.00 in0.0 mm 0.00 in0.0 mm 0.00 in0.0 mm
04:10 PM 14.9°F-9.5°C -2.6°F-19.2°C 45% 11.0 mph W17.7 kmh W 11.0 mph17.7 kmh 30.28 in1025.4 mb 0.00 in0.0 mm 0.00 in0.0 mm 0.00 in0.0 mm
04:12 PM 14.9°F-9.5°C -2.6°F-19.2°C 45% 7.0 mph NW11.3 kmh NW 9.0 mph14.5 kmh 30.28 in1025.4 mb 0.00 in0.0 mm 0.00 in0.0 mm 0.00 in0.0 mm
04:14 PM 14.9°F-9.5°C -2.6°F-19.2°C 45% 3.0 mph NW4.8 kmh NW 5.0 mph8.0 kmh 30.29 in1025.7 mb 0.00 in0.0 mm 0.00 in0.0 mm 0.00 in0.0 mm
04:16 PM 14.9°F-9.5°C -2.6°F-19.2°C 45% 10.0 mph NW16.1 kmh NW 14.0 mph22.5 kmh 30.28 in1025.4 mb 0.00 in0.0 mm 0.00 in0.0 mm 0.00 in0.0 mm
04:18 PM 14.9°F-9.5°C -2.6°F-19.2°C 45% 10.0 mph NW16.1 kmh NW 10.0 mph16.1 kmh 30.29 in1025.7 mb 0.00 in0.0 mm 0.00 in0.0 mm 0.00 in0.0 mm
04:20 PM 14.8°F-9.6°C -2.7°F-19.3°C 45% 3.0 mph NW4.8 kmh NW 11.0 mph17.7 kmh 30.29 in1025.7 mb 0.00 in0.0 mm 0.00 in0.0 mm 0.00 in0.0 mm
04:22 PM 14.8°F-9.6°C -2.7°F-19.3°C 45% 4.0 mph NW6.4 kmh NW 12.0 mph19.3 kmh 30.28 in1025.4 mb 0.00 in0.0 mm 0.00 in0.0 mm 0.00 in0.0 mm
04:24 PM 14.8°F-9.6°C -2.7°F-19.3°C 45% 9.0 mph NNW14.5 kmh NNW 9.0 mph14.5 kmh 30.28 in1025.4 mb 0.00 in0.0 mm 0.00 in0.0 mm 0.00 in0.0 mm
04:26 PM 14.7°F-9.6°C -2.3°F-19.1°C 46% 5.0 mph NW8.0 kmh NW 6.0 mph9.7 kmh 30.28 in1025.4 mb 0.00 in0.0 mm 0.00 in0.0 mm 0.00 in0.0 mm
04:28 PM 14.7°F-9.6°C -2.3°F-19.1°C 46% 6.0 mph NW9.7 kmh NW 6.0 mph9.7 kmh 30.28 in1025.4 mb 0.00 in0.0 mm 0.00 in0.0 mm 0.00 in0.0 mm
04:30 PM 14.7°F-9.6°C -2.3°F-19.1°C 46% 3.0 mph W4.8 kmh W 6.0 mph9.7 kmh 30.28 in1025.4 mb 0.00 in0.0 mm 0.00 in0.0 mm 0.00 in0.0 mm
04:32 PM 14.7°F-9.6°C -2.3°F-19.1°C 46% 1.0 mph NW1.6 kmh NW 1.0 mph1.6 kmh 30.28 in1025.4 mb 0.00 in0.0 mm 0.00 in0.0 mm 0.00 in0.0 mm
04:34 PM 14.8°F-9.6°C -1.8°F-18.8°C 47% 4.0 mph WNW6.4 kmh WNW 4.0 mph6.4 kmh 30.28 in1025.4 mb 0.00 in0.0 mm 0.00 in0.0 mm 0.00 in0.0 mm
04:36 PM 14.7°F-9.6°C -1.9°F-18.8°C 47% 11.0 mph WNW17.7 kmh WNW 11.0 mph17.7 kmh 30.28 in1025.4 mb 0.00 in0.0 mm 0.00 in0.0 mm 0.00 in0.0 mm
04:38 PM 14.7°F-9.6°C -2.3°F-19.1°C 46% 5.0 mph NW8.0 kmh NW 7.0 mph11.3 kmh 30.29 in1025.7 mb 0.00 in0.0 mm 0.00 in0.0 mm 0.00 in0.0 mm
04:40 PM 14.7°F-9.6°C -2.3°F-19.1°C 46% 10.0 mph WNW16.1 kmh WNW 10.0 mph16.1 kmh 30.29 in1025.7 mb 0.00 in0.0 mm 0.00 in0.0 mm 0.00 in0.0 mm
04:42 PM 14.8°F-9.6°C -1.8°F-18.8°C 47% 13.0 mph WNW20.9 kmh WNW 13.0 mph20.9 kmh 30.29 in1025.7 mb 0.00 in0.0 mm 0.00 in0.0 mm 0.00 in0.0 mm
04:44 PM 14.7°F-9.6°C -2.3°F-19.1°C 46% 3.0 mph NW4.8 kmh NW 4.0 mph6.4 kmh 30.29 in1025.7 mb 0.00 in0.0 mm 0.00 in0.0 mm 0.00 in0.0 mm
04:46 PM 14.7°F-9.6°C -2.3°F-19.1°C 46% 2.0 mph NW3.2 kmh NW 10.0 mph16.1 kmh 30.29 in1025.7 mb 0.00 in0.0 mm 0.00 in0.0 mm 0.00 in0.0 mm
04:48 PM 14.7°F-9.6°C -1.9°F-18.8°C 47% 7.0 mph W11.3 kmh W 14.0 mph22.5 kmh 30.28 in1025.4 mb 0.00 in0.0 mm 0.00 in0.0 mm 0.00 in0.0 mm
04:50 PM 14.6°F-9.7°C -2.0°F-18.9°C 47% 11.0 mph N17.7 kmh N 13.0 mph20.9 kmh 30.29 in1025.7 mb 0.00 in0.0 mm 0.00 in0.0 mm 0.00 in0.0 mm
04:52 PM 14.6°F-9.7°C -2.0°F-18.9°C 47% 5.0 mph WNW8.0 kmh WNW 11.0 mph17.7 kmh 30.28 in1025.4 mb 0.00 in0.0 mm 0.00 in0.0 mm 0.00 in0.0 mm
04:54 PM 14.5°F-9.7°C -2.1°F-18.9°C 47% 3.0 mph NW4.8 kmh NW 6.0 mph9.7 kmh 30.28 in1025.4 mb 0.00 in0.0 mm 0.00 in0.0 mm 0.00 in0.0 mm
04:56 PM 14.4°F-9.8°C -2.1°F-18.9°C 47% 2.0 mph NNW3.2 kmh NNW 3.0 mph4.8 kmh 30.28 in1025.4 mb 0.00 in0.0 mm 0.00 in0.0 mm 0.00 in0.0 mm
04:58 PM 14.4°F-9.8°C -2.1°F-18.9°C 47% 10.0 mph NW16.1 kmh NW 10.0 mph16.1 kmh 30.28 in1025.4 mb 0.00 in0.0 mm 0.00 in0.0 mm 0.00 in0.0 mm
05:00 PM 14.4°F-9.8°C -2.1°F-18.9°C 47% 1.0 mph NW1.6 kmh NW 7.0 mph11.3 kmh 30.28 in1025.4 mb 0.00 in0.0 mm 0.00 in0.0 mm 0.00 in0.0 mm
05:02 PM 14.3°F-9.8°C -2.2°F-19.0°C 47% 6.0 mph WNW9.7 kmh WNW 6.0 mph9.7 kmh 30.29 in1025.7 mb 0.00 in0.0 mm 0.00 in0.0 mm 0.00 in0.0 mm
05:04 PM 14.3°F-9.8°C -1.8°F-18.8°C 48% 4.0 mph NW6.4 kmh NW 5.0 mph8.0 kmh 30.29 in1025.7 mb 0.00 in0.0 mm 0.00 in0.0 mm 0.00 in0.0 mm
05:06 PM 14.2°F-9.9°C -1.9°F-18.8°C 48% 5.0 mph NNW8.0 kmh NNW 9.0 mph14.5 kmh 30.28 in1025.4 mb 0.00 in0.0 mm 0.00 in0.0 mm 0.00 in0.0 mm
05:08 PM 14.1°F-9.9°C -2.0°F-18.9°C 48% 11.0 mph WSW17.7 kmh WSW 11.0 mph17.7 kmh 30.28 in1025.4 mb 0.00 in0.0 mm 0.00 in0.0 mm 0.00 in0.0 mm
05:10 PM 14.1°F-9.9°C -2.0°F-18.9°C 48% 1.0 mph NW1.6 kmh NW 2.0 mph3.2 kmh 30.28 in1025.4 mb 0.00 in0.0 mm 0.00 in0.0 mm 0.00 in0.0 mm
05:12 PM 14.1°F-9.9°C -2.0°F-18.9°C 48% 2.0 mph WNW3.2 kmh WNW 3.0 mph4.8 kmh 30.29 in1025.7 mb 0.00 in0.0 mm 0.00 in0.0 mm 0.00 in0.0 mm
05:14 PM 14.1°F-9.9°C -2.0°F-18.9°C 48% 3.0 mph WNW4.8 kmh WNW 6.0 mph9.7 kmh 30.29 in1025.7 mb 0.00 in0.0 mm 0.00 in0.0 mm 0.00 in0.0 mm
05:16 PM 14.1°F-9.9°C -2.0°F-18.9°C 48% 4.0 mph WSW6.4 kmh WSW 4.0 mph6.4 kmh 30.29 in1025.7 mb 0.00 in0.0 mm 0.00 in0.0 mm 0.00 in0.0 mm
05:20 PM 14.0°F-10.0°C -1.6°F-18.7°C 49% 7.0 mph WNW11.3 kmh WNW 7.0 mph11.3 kmh 30.29 in1025.7 mb 0.00 in0.0 mm 0.00 in0.0 mm 0.00 in0.0 mm
05:22 PM 13.9°F-10.1°C -1.7°F-18.7°C 49% 4.0 mph WNW6.4 kmh WNW 7.0 mph11.3 kmh 30.29 in1025.7 mb 0.00 in0.0 mm 0.00 in0.0 mm 0.00 in0.0 mm
05:24 PM 13.9°F-10.1°C -1.7°F-18.7°C 49% 7.0 mph WNW11.3 kmh WNW 7.0 mph11.3 kmh 30.29 in1025.7 mb 0.00 in0.0 mm 0.00 in0.0 mm 0.00 in0.0 mm
05:26 PM 13.9°F-10.1°C -1.7°F-18.7°C 49% 3.0 mph WNW4.8 kmh WNW 4.0 mph6.4 kmh 30.29 in1025.7 mb 0.00 in0.0 mm 0.00 in0.0 mm 0.00 in0.0 mm
05:28 PM 13.8°F-10.1°C -1.8°F-18.8°C 49% 7.0 mph WNW11.3 kmh WNW 7.0 mph11.3 kmh 30.29 in1025.7 mb 0.00 in0.0 mm 0.00 in0.0 mm 0.00 in0.0 mm
05:30 PM 13.7°F-10.2°C -1.9°F-18.8°C 49% 7.0 mph WNW11.3 kmh WNW 7.0 mph11.3 kmh 30.29 in1025.7 mb 0.00 in0.0 mm 0.00 in0.0 mm 0.00 in0.0 mm
05:32 PM 13.7°F-10.2°C -1.9°F-18.8°C 49% 2.0 mph W3.2 kmh W 7.0 mph11.3 kmh 30.29 in1025.7 mb 0.00 in0.0 mm 0.00 in0.0 mm 0.00 in0.0 mm
05:34 PM 13.6°F-10.2°C -2.0°F-18.9°C 49% 4.0 mph WNW6.4 kmh WNW 5.0 mph8.0 kmh 30.29 in1025.7 mb 0.00 in0.0 mm 0.00 in0.0 mm 0.00 in0.0 mm
05:36 PM 13.6°F-10.2°C -2.0°F-18.9°C 49% 6.0 mph NW9.7 kmh NW 12.0 mph19.3 kmh 30.29 in1025.7 mb 0.00 in0.0 mm 0.00 in0.0 mm 0.00 in0.0 mm
05:38 PM 13.5°F-10.3°C -2.1°F-18.9°C 49% 5.0 mph NNW8.0 kmh NNW 5.0 mph8.0 kmh 30.29 in1025.7 mb 0.00 in0.0 mm 0.00 in0.0 mm 0.00 in0.0 mm
05:40 PM 13.5°F-10.3°C -2.1°F-18.9°C 49% 2.0 mph WSW3.2 kmh WSW 5.0 mph8.0 kmh 30.29 in1025.7 mb 0.00 in0.0 mm 0.00 in0.0 mm 0.00 in0.0 mm
05:42 PM 13.4°F-10.3°C -1.8°F-18.8°C 50% 6.0 mph NW9.7 kmh NW 12.0 mph19.3 kmh 30.29 in1025.7 mb 0.00 in0.0 mm 0.00 in0.0 mm 0.00 in0.0 mm
05:44 PM 13.3°F-10.4°C -1.9°F-18.8°C 50% 3.0 mph N4.8 kmh N 3.0 mph4.8 kmh 30.29 in1025.7 mb 0.00 in0.0 mm 0.00 in0.0 mm 0.00 in0.0 mm
05:46 PM 13.3°F-10.4°C -1.9°F-18.8°C 50% 3.0 mph NW4.8 kmh NW 12.0 mph19.3 kmh 30.29 in1025.7 mb 0.00 in0.0 mm 0.00 in0.0 mm 0.00 in0.0 mm
05:48 PM 13.3°F-10.4°C -1.9°F-18.8°C 50% 8.0 mph WNW12.9 kmh WNW 8.0 mph12.9 kmh 30.30 in1026.1 mb 0.00 in0.0 mm 0.00 in0.0 mm 0.00 in0.0 mm
05:50 PM 13.2°F-10.4°C -2.0°F-18.9°C 50% 6.0 mph WNW9.7 kmh WNW 6.0 mph9.7 kmh 30.29 in1025.7 mb 0.00 in0.0 mm 0.00 in0.0 mm 0.00 in0.0 mm
05:52 PM 13.2°F-10.4°C -2.0°F-18.9°C 50% 1.0 mph NW1.6 kmh NW 1.0 mph1.6 kmh 30.30 in1026.1 mb 0.00 in0.0 mm 0.00 in0.0 mm 0.00 in0.0 mm
05:54 PM 13.1°F-10.5°C -2.0°F-18.9°C 50% 4.0 mph WNW6.4 kmh WNW 11.0 mph17.7 kmh 30.30 in1026.1 mb 0.00 in0.0 mm 0.00 in0.0 mm 0.00 in0.0 mm
05:56 PM 13.1°F-10.5°C -2.0°F-18.9°C 50% 2.0 mph WNW3.2 kmh WNW 6.0 mph9.7 kmh 30.30 in1026.1 mb 0.00 in0.0 mm 0.00 in0.0 mm 0.00 in0.0 mm
05:58 PM 13.1°F-10.5°C -2.0°F-18.9°C 50% 5.0 mph W8.0 kmh W 11.0 mph17.7 kmh 30.30 in1026.1 mb 0.00 in0.0 mm 0.00 in0.0 mm 0.00 in0.0 mm
06:00 PM 13.1°F-10.5°C -2.0°F-18.9°C 50% 4.0 mph WNW6.4 kmh WNW 6.0 mph9.7 kmh 30.30 in1026.1 mb 0.00 in0.0 mm 0.00 in0.0 mm 0.00 in0.0 mm
06:02 PM 13.0°F-10.6°C -2.1°F-18.9°C 50% 3.0 mph WNW4.8 kmh WNW 6.0 mph9.7 kmh 30.30 in1026.1 mb 0.00 in0.0 mm 0.00 in0.0 mm 0.00 in0.0 mm
06:04 PM 13.0°F-10.6°C -2.1°F-18.9°C 50% 7.0 mph NW11.3 kmh NW 10.0 mph16.1 kmh 30.30 in1026.1 mb 0.00 in0.0 mm 0.00 in0.0 mm 0.00 in0.0 mm
06:06 PM 13.0°F-10.6°C -2.1°F-18.9°C 50% 9.0 mph WNW14.5 kmh WNW 9.0 mph14.5 kmh 30.30 in1026.1 mb 0.00 in0.0 mm 0.00 in0.0 mm 0.00 in0.0 mm
06:08 PM 13.0°F-10.6°C -2.1°F-18.9°C 50% 1.0 mph WNW1.6 kmh WNW 3.0 mph4.8 kmh 30.30 in1026.1 mb 0.00 in0.0 mm 0.00 in0.0 mm 0.00 in0.0 mm
06:10 PM 13.0°F-10.6°C -1.7°F-18.7°C 51% 3.0 mph WNW4.8 kmh WNW 3.0 mph4.8 kmh 30.30 in1026.1 mb 0.00 in0.0 mm 0.00 in0.0 mm 0.00 in0.0 mm
06:12 PM 13.0°F-10.6°C -1.7°F-18.7°C 51% 5.0 mph NW8.0 kmh NW 5.0 mph8.0 kmh 30.30 in1026.1 mb 0.00 in0.0 mm 0.00 in0.0 mm 0.00 in0.0 mm
06:14 PM 13.0°F-10.6°C -1.7°F-18.7°C 51% 3.0 mph WNW4.8 kmh WNW 6.0 mph9.7 kmh 30.31 in1026.4 mb 0.00 in0.0 mm 0.00 in0.0 mm 0.00 in0.0 mm
06:16 PM 12.9°F-10.6°C -2.2°F-19.0°C 50% 3.0 mph WNW4.8 kmh WNW 5.0 mph8.0 kmh 30.31 in1026.4 mb 0.00 in0.0 mm 0.00 in0.0 mm 0.00 in0.0 mm
06:18 PM 12.9°F-10.6°C -1.8°F-18.8°C 51% Calm Calm 1.0 mph1.6 kmh 30.31 in1026.4 mb 0.00 in0.0 mm 0.00 in0.0 mm 0.00 in0.0 mm
06:20 PM 12.9°F-10.6°C -1.8°F-18.8°C 51% 7.0 mph W11.3 kmh W 7.0 mph11.3 kmh 30.31 in1026.4 mb 0.00 in0.0 mm 0.00 in0.0 mm 0.00 in0.0 mm
06:22 PM 12.8°F-10.7°C -1.9°F-18.8°C 51% 7.0 mph NW11.3 kmh NW 7.0 mph11.3 kmh 30.31 in1026.4 mb 0.00 in0.0 mm 0.00 in0.0 mm 0.00 in0.0 mm
06:24 PM 12.8°F-10.7°C -1.9°F-18.8°C 51% 5.0 mph WNW8.0 kmh WNW 5.0 mph8.0 kmh 30.31 in1026.4 mb 0.00 in0.0 mm 0.00 in0.0 mm 0.00 in0.0 mm
06:26 PM 12.8°F-10.7°C -1.9°F-18.8°C 51% 1.0 mph WNW1.6 kmh WNW 4.0 mph6.4 kmh 30.31 in1026.4 mb 0.00 in0.0 mm 0.00 in0.0 mm 0.00 in0.0 mm
06:28 PM 12.7°F-10.7°C -2.0°F-18.9°C 51% Calm Calm -- 30.31 in1026.4 mb 0.00 in0.0 mm 0.00 in0.0 mm 0.00 in0.0 mm
06:30 PM 12.7°F-10.7°C -2.0°F-18.9°C 51% Calm Calm 1.0 mph1.6 kmh 30.31 in1026.4 mb 0.00 in0.0 mm 0.00 in0.0 mm 0.00 in0.0 mm
06:32 PM 12.7°F-10.7°C -2.0°F-18.9°C 51% 1.0 mph NW1.6 kmh NW 2.0 mph3.2 kmh 30.31 in1026.4 mb 0.00 in0.0 mm 0.00 in0.0 mm 0.00 in0.0 mm
06:34 PM 12.6°F-10.8°C -2.1°F-18.9°C 51% Calm Calm -- 30.31 in1026.4 mb 0.00 in0.0 mm 0.00 in0.0 mm 0.00 in0.0 mm
06:36 PM 12.6°F-10.8°C -2.1°F-18.9°C 51% Calm Calm -- 30.31 in1026.4 mb 0.00 in0.0 mm 0.00 in0.0 mm 0.00 in0.0 mm
06:38 PM 12.6°F-10.8°C -2.1°F-18.9°C 51% Calm Calm -- 30.31 in1026.4 mb 0.00 in0.0 mm 0.00 in0.0 mm 0.00 in0.0 mm
06:40 PM 12.5°F-10.8°C -1.8°F-18.8°C 52% Calm Calm 1.0 mph1.6 kmh 30.31 in1026.4 mb 0.00 in0.0 mm 0.00 in0.0 mm 0.00 in0.0 mm
06:42 PM 12.4°F-10.9°C -1.9°F-18.8°C 52% 2.0 mph NW3.2 kmh NW 4.0 mph6.4 kmh 30.31 in1026.4 mb 0.00 in0.0 mm 0.00 in0.0 mm 0.00 in0.0 mm
06:44 PM 12.4°F-10.9°C -1.9°F-18.8°C 52% 2.0 mph NW3.2 kmh NW 2.0 mph3.2 kmh 30.31 in1026.4 mb 0.00 in0.0 mm 0.00 in0.0 mm 0.00 in0.0 mm
06:46 PM 12.3°F-10.9°C -2.0°F-18.9°C 52% 3.0 mph WNW4.8 kmh WNW 3.0 mph4.8 kmh 30.32 in1026.8 mb 0.00 in0.0 mm 0.00 in0.0 mm 0.00 in0.0 mm
06:48 PM 12.3°F-10.9°C -2.0°F-18.9°C 52% 1.0 mph WNW1.6 kmh WNW 3.0 mph4.8 kmh 30.32 in1026.8 mb 0.00 in0.0 mm 0.00 in0.0 mm 0.00 in0.0 mm
06:50 PM 12.3°F-10.9°C -2.0°F-18.9°C 52% 1.0 mph WNW1.6 kmh WNW 2.0 mph3.2 kmh 30.32 in1026.8 mb 0.00 in0.0 mm 0.00 in0.0 mm 0.00 in0.0 mm
06:52 PM 12.3°F-10.9°C -1.6°F-18.7°C 53% 4.0 mph WNW6.4 kmh WNW 4.0 mph6.4 kmh 30.32 in1026.8 mb 0.00 in0.0 mm 0.00 in0.0 mm 0.00 in0.0 mm
06:54 PM 12.2°F-11.0°C -1.7°F-18.7°C 53% 2.0 mph WNW3.2 kmh WNW 4.0 mph6.4 kmh 30.32 in1026.8 mb 0.00 in0.0 mm 0.00 in0.0 mm 0.00 in0.0 mm
06:56 PM 12.2°F-11.0°C -1.7°F-18.7°C 53% 2.0 mph WNW3.2 kmh WNW 2.0 mph3.2 kmh 30.32 in1026.8 mb 0.00 in0.0 mm 0.00 in0.0 mm 0.00 in0.0 mm
06:58 PM 12.1°F-11.1°C -1.7°F-18.7°C 53% 3.0 mph WNW4.8 kmh WNW 3.0 mph4.8 kmh 30.32 in1026.8 mb 0.00 in0.0 mm 0.00 in0.0 mm 0.00 in0.0 mm
07:00 PM 12.1°F-11.1°C -1.7°F-18.7°C 53% 2.0 mph W3.2 kmh W 5.0 mph8.0 kmh 30.32 in1026.8 mb 0.00 in0.0 mm 0.00 in0.0 mm 0.00 in0.0 mm
07:02 PM 12.1°F-11.1°C -1.7°F-18.7°C 53% 2.0 mph W3.2 kmh W 4.0 mph6.4 kmh 30.32 in1026.8 mb 0.00 in0.0 mm 0.00 in0.0 mm 0.00 in0.0 mm
07:04 PM 12.0°F-11.1°C -1.8°F-18.8°C 53% 1.0 mph W1.6 kmh W 1.0 mph1.6 kmh 30.32 in1026.8 mb 0.00 in0.0 mm 0.00 in0.0 mm 0.00 in0.0 mm
07:06 PM 12.0°F-11.1°C -1.8°F-18.8°C 53% 1.0 mph W1.6 kmh W 4.0 mph6.4 kmh 30.32 in1026.8 mb 0.00 in0.0 mm 0.00 in0.0 mm 0.00 in0.0 mm
07:08 PM 12.0°F-11.1°C -1.4°F-18.6°C 54% Calm Calm 5.0 mph8.0 kmh 30.32 in1026.8 mb 0.00 in0.0 mm 0.00 in0.0 mm 0.00 in0.0 mm
07:10 PM 11.9°F-11.2°C -1.5°F-18.6°C 54% 2.0 mph W3.2 kmh W 6.0 mph9.7 kmh 30.32 in1026.8 mb 0.00 in0.0 mm 0.00 in0.0 mm 0.00 in0.0 mm
07:12 PM 11.9°F-11.2°C -1.5°F-18.6°C 54% 2.0 mph W3.2 kmh W 5.0 mph8.0 kmh 30.32 in1026.8 mb 0.00 in0.0 mm 0.00 in0.0 mm 0.00 in0.0 mm
07:14 PM 11.9°F-11.2°C -1.5°F-18.6°C 54% 5.0 mph W8.0 kmh W 5.0 mph8.0 kmh 30.32 in1026.8 mb 0.00 in0.0 mm 0.00 in0.0 mm 0.00 in0.0 mm
07:16 PM 11.9°F-11.2°C -1.5°F-18.6°C 54% 4.0 mph W6.4 kmh W 4.0 mph6.4 kmh 30.32 in1026.8 mb 0.00 in0.0 mm 0.00 in0.0 mm 0.00 in0.0 mm
07:18 PM 11.8°F-11.2°C -1.6°F-18.7°C 54% 2.0 mph W3.2 kmh W 3.0 mph4.8 kmh 30.31 in1026.4 mb 0.00 in0.0 mm 0.00 in0.0 mm 0.00 in0.0 mm
07:20 PM 11.8°F-11.2°C -1.6°F-18.7°C 54% Calm Calm 2.0 mph3.2 kmh 30.31 in1026.4 mb 0.00 in0.0 mm 0.00 in0.0 mm 0.00 in0.0 mm
07:22 PM 11.8°F-11.2°C -1.6°F-18.7°C 54% Calm Calm 4.0 mph6.4 kmh 30.32 in1026.8 mb 0.00 in0.0 mm 0.00 in0.0 mm 0.00 in0.0 mm
07:24 PM 11.8°F-11.2°C -1.6°F-18.7°C 54% Calm Calm 1.0 mph1.6 kmh 30.32 in1026.8 mb 0.00 in0.0 mm 0.00 in0.0 mm 0.00 in0.0 mm
07:26 PM 11.7°F-11.3°C -1.7°F-18.7°C 54% Calm Calm 3.0 mph4.8 kmh 30.31 in1026.4 mb 0.00 in0.0 mm 0.00 in0.0 mm 0.00 in0.0 mm
07:28 PM 11.7°F-11.3°C -1.3°F-18.5°C 55% Calm Calm 2.0 mph3.2 kmh 30.32 in1026.8 mb 0.00 in0.0 mm 0.00 in0.0 mm 0.00 in0.0 mm
07:30 PM 11.7°F-11.3°C -1.3°F-18.5°C 55% 2.0 mph W3.2 kmh W 3.0 mph4.8 kmh 30.32 in1026.8 mb 0.00 in0.0 mm 0.00 in0.0 mm 0.00 in0.0 mm
07:32 PM 11.6°F-11.3°C -1.4°F-18.6°C 55% Calm Calm -- 30.32 in1026.8 mb 0.00 in0.0 mm 0.00 in0.0 mm 0.00 in0.0 mm
07:34 PM 11.6°F-11.3°C -1.4°F-18.6°C 55% Calm Calm -- 30.32 in1026.8 mb 0.00 in0.0 mm 0.00 in0.0 mm 0.00 in0.0 mm
07:36 PM 11.5°F-11.4°C -1.5°F-18.6°C 55% Calm Calm -- 30.32 in1026.8 mb 0.00 in0.0 mm 0.00 in0.0 mm 0.00 in0.0 mm
07:38 PM 11.5°F-11.4°C -1.5°F-18.6°C 55% Calm Calm -- 30.32 in1026.8 mb 0.00 in0.0 mm 0.00 in0.0 mm 0.00 in0.0 mm
07:40 PM 11.4°F-11.4°C -1.6°F-18.7°C 55% Calm Calm 4.0 mph6.4 kmh 30.32 in1026.8 mb 0.00 in0.0 mm 0.00 in0.0 mm 0.00 in0.0 mm
07:42 PM 11.4°F-11.4°C -1.6°F-18.7°C 55% Calm Calm -- 30.31 in1026.4 mb 0.00 in0.0 mm 0.00 in0.0 mm 0.00 in0.0 mm
07:44 PM 11.4°F-11.4°C -1.6°F-18.7°C 55% Calm Calm 1.0 mph1.6 kmh 30.32 in1026.8 mb 0.00 in0.0 mm 0.00 in0.0 mm 0.00 in0.0 mm
07:46 PM 11.3°F-11.5°C -1.7°F-18.7°C 55% Calm Calm -- 30.32 in1026.8 mb 0.00 in0.0 mm 0.00 in0.0 mm 0.00 in0.0 mm
07:48 PM 11.3°F-11.5°C -1.7°F-18.7°C 55% Calm Calm -- 30.32 in1026.8 mb 0.00 in0.0 mm 0.00 in0.0 mm 0.00 in0.0 mm
07:50 PM 11.3°F-11.5°C -1.7°F-18.7°C 55% 1.0 mph W1.6 kmh W 1.0 mph1.6 kmh 30.32 in1026.8 mb 0.00 in0.0 mm 0.00 in0.0 mm 0.00 in0.0 mm
07:52 PM 11.2°F-11.6°C -1.8°F-18.8°C 55% Calm Calm -- 30.32 in1026.8 mb 0.00 in0.0 mm 0.00 in0.0 mm 0.00 in0.0 mm
07:54 PM 11.2°F-11.6°C -1.8°F-18.8°C 55% Calm Calm -- 30.32 in1026.8 mb 0.00 in0.0 mm 0.00 in0.0 mm 0.00 in0.0 mm
07:56 PM 11.1°F-11.6°C -1.9°F-18.8°C 55% Calm Calm -- 30.31 in1026.4 mb 0.00 in0.0 mm 0.00 in0.0 mm 0.00 in0.0 mm
07:58 PM 11.0°F-11.7°C -2.0°F-18.9°C 55% Calm Calm -- 30.31 in1026.4 mb 0.00 in0.0 mm 0.00 in0.0 mm 0.00 in0.0 mm
08:00 PM 11.0°F-11.7°C -1.6°F-18.7°C 56% Calm Calm -- 30.31 in1026.4 mb 0.00 in0.0 mm 0.00 in0.0 mm 0.00 in0.0 mm
08:02 PM 11.0°F-11.7°C -1.6°F-18.7°C 56% Calm Calm -- 30.31 in1026.4 mb 0.00 in0.0 mm 0.00 in0.0 mm 0.00 in0.0 mm
08:04 PM 10.9°F-11.7°C -1.7°F-18.7°C 56% Calm Calm -- 30.31 in1026.4 mb 0.00 in0.0 mm 0.00 in0.0 mm 0.00 in0.0 mm
08:06 PM 10.9°F-11.7°C -1.7°F-18.7°C 56% Calm Calm -- 30.31 in1026.4 mb 0.00 in0.0 mm 0.00 in0.0 mm 0.00 in0.0 mm
08:08 PM 10.8°F-11.8°C -1.8°F-18.8°C 56% Calm Calm -- 30.31 in1026.4 mb 0.00 in0.0 mm 0.00 in0.0 mm 0.00 in0.0 mm
08:10 PM 10.8°F-11.8°C -1.8°F-18.8°C 56% Calm Calm -- 30.31 in1026.4 mb 0.00 in0.0 mm 0.00 in0.0 mm 0.00 in0.0 mm
08:12 PM 10.8°F-11.8°C -1.8°F-18.8°C 56% Calm Calm -- 30.31 in1026.4 mb 0.00 in0.0 mm 0.00 in0.0 mm 0.00 in0.0 mm
08:14 PM 10.7°F-11.8°C -1.5°F-18.6°C 57% Calm Calm -- 30.31 in1026.4 mb 0.00 in0.0 mm 0.00 in0.0 mm 0.00 in0.0 mm
08:16 PM 10.7°F-11.8°C -1.5°F-18.6°C 57% Calm Calm -- 30.31 in1026.4 mb 0.00 in0.0 mm 0.00 in0.0 mm 0.00 in0.0 mm
08:18 PM 10.5°F-11.9°C -1.7°F-18.7°C 57% 1.0 mph W1.6 kmh W 1.0 mph1.6 kmh 30.31 in1026.4 mb 0.00 in0.0 mm 0.00 in0.0 mm 0.00 in0.0 mm
08:20 PM 10.5°F-11.9°C -1.7°F-18.7°C 57% Calm Calm -- 30.32 in1026.8 mb 0.00 in0.0 mm 0.00 in0.0 mm 0.00 in0.0 mm
08:22 PM 10.4°F-12.0°C -1.8°F-18.8°C 57% Calm Calm -- 30.31 in1026.4 mb 0.00 in0.0 mm 0.00 in0.0 mm 0.00 in0.0 mm
08:24 PM 10.4°F-12.0°C -1.8°F-18.8°C 57% Calm Calm -- 30.31 in1026.4 mb 0.00 in0.0 mm 0.00 in0.0 mm 0.00 in0.0 mm
08:26 PM 10.3°F-12.1°C -1.9°F-18.8°C 57% Calm Calm -- 30.31 in1026.4 mb 0.00 in0.0 mm 0.00 in0.0 mm 0.00 in0.0 mm
08:28 PM 10.3°F-12.1°C -1.9°F-18.8°C 57% Calm Calm -- 30.31 in1026.4 mb 0.00 in0.0 mm 0.00 in0.0 mm 0.00 in0.0 mm
08:30 PM 10.2°F-12.1°C -2.0°F-18.9°C 57% Calm Calm -- 30.31 in1026.4 mb 0.00 in0.0 mm 0.00 in0.0 mm 0.00 in0.0 mm
08:32 PM 10.2°F-12.1°C -1.6°F-18.7°C 58% Calm Calm 1.0 mph1.6 kmh 30.31 in1026.4 mb 0.00 in0.0 mm 0.00 in0.0 mm 0.00 in0.0 mm
08:34 PM 10.1°F-12.2°C -1.7°F-18.7°C 58% 1.0 mph W1.6 kmh W 1.0 mph1.6 kmh 30.31 in1026.4 mb 0.00 in0.0 mm 0.00 in0.0 mm 0.00 in0.0 mm
08:36 PM 10.1°F-12.2°C -1.7°F-18.7°C 58% Calm Calm 1.0 mph1.6 kmh 30.31 in1026.4 mb 0.00 in0.0 mm 0.00 in0.0 mm 0.00 in0.0 mm
08:38 PM 10.0°F-12.2°C -2.2°F-19.0°C 57% 1.0 mph W1.6 kmh W 1.0 mph1.6 kmh 30.30 in1026.1 mb 0.00 in0.0 mm 0.00 in0.0 mm 0.00 in0.0 mm
08:40 PM 10.0°F-12.2°C -1.8°F-18.8°C 58% 1.0 mph W1.6 kmh W 1.0 mph1.6 kmh 30.31 in1026.4 mb 0.00 in0.0 mm 0.00 in0.0 mm 0.00 in0.0 mm
08:42 PM 9.9°F-12.3°C -2.3°F-19.1°C 57% 1.0 mph W1.6 kmh W 2.0 mph3.2 kmh 30.31 in1026.4 mb 0.00 in0.0 mm 0.00 in0.0 mm 0.00 in0.0 mm
08:44 PM 9.9°F-12.3°C -1.9°F-18.8°C 58% 2.0 mph W3.2 kmh W 3.0 mph4.8 kmh 30.31 in1026.4 mb 0.00 in0.0 mm 0.00 in0.0 mm 0.00 in0.0 mm
08:46 PM 9.8°F-12.3°C -2.0°F-18.9°C 58% Calm Calm -- 30.31 in1026.4 mb 0.00 in0.0 mm 0.00 in0.0 mm 0.00 in0.0 mm
08:48 PM 9.8°F-12.3°C -2.0°F-18.9°C 58% Calm Calm -- 30.31 in1026.4 mb 0.00 in0.0 mm 0.00 in0.0 mm 0.00 in0.0 mm
08:50 PM 9.8°F-12.3°C -2.0°F-18.9°C 58% 3.0 mph W4.8 kmh W 3.0 mph4.8 kmh 30.31 in1026.4 mb 0.00 in0.0 mm 0.00 in0.0 mm 0.00 in0.0 mm
08:52 PM 9.7°F-12.4°C -2.1°F-18.9°C 58% 1.0 mph W1.6 kmh W 2.0 mph3.2 kmh 30.31 in1026.4 mb 0.00 in0.0 mm 0.00 in0.0 mm 0.00 in0.0 mm
08:54 PM 9.7°F-12.4°C -2.1°F-18.9°C 58% Calm Calm -- 30.31 in1026.4 mb 0.00 in0.0 mm 0.00 in0.0 mm 0.00 in0.0 mm
08:56 PM 9.7°F-12.4°C -2.1°F-18.9°C 58% Calm Calm -- 30.31 in1026.4 mb 0.00 in0.0 mm 0.00 in0.0 mm 0.00 in0.0 mm
08:58 PM 9.6°F-12.4°C -1.8°F-18.8°C 59% Calm Calm -- 30.31 in1026.4 mb 0.00 in0.0 mm 0.00 in0.0 mm 0.00 in0.0 mm
09:00 PM 9.6°F-12.4°C -1.8°F-18.8°C 59% Calm Calm -- 30.31 in1026.4 mb 0.00 in0.0 mm 0.00 in0.0 mm 0.00 in0.0 mm
09:02 PM 9.6°F-12.4°C -1.8°F-18.8°C 59% Calm Calm -- 30.30 in1026.1 mb 0.00 in0.0 mm 0.00 in0.0 mm 0.00 in0.0 mm
09:04 PM 9.6°F-12.4°C -1.8°F-18.8°C 59% Calm Calm -- 30.30 in1026.1 mb 0.00 in0.0 mm 0.00 in0.0 mm 0.00 in0.0 mm
09:06 PM 9.5°F-12.5°C -1.6°F-18.7°C 60% Calm Calm -- 30.31 in1026.4 mb 0.00 in0.0 mm 0.00 in0.0 mm 0.00 in0.0 mm
09:08 PM 9.5°F-12.5°C -1.6°F-18.7°C 60% Calm Calm -- 30.31 in1026.4 mb 0.00 in0.0 mm 0.00 in0.0 mm 0.00 in0.0 mm
09:10 PM 9.5°F-12.5°C -1.6°F-18.7°C 60% Calm Calm -- 30.31 in1026.4 mb 0.00 in0.0 mm 0.00 in0.0 mm 0.00 in0.0 mm
09:12 PM 9.5°F-12.5°C -1.2°F-18.4°C 61% Calm Calm -- 30.31 in1026.4 mb 0.00 in0.0 mm 0.00 in0.0 mm 0.00 in0.0 mm
09:14 PM 9.4°F-12.6°C -1.3°F-18.5°C 61% Calm Calm -- 30.31 in1026.4 mb 0.00 in0.0 mm 0.00 in0.0 mm 0.00 in0.0 mm
09:16 PM 9.4°F-12.6°C -1.3°F-18.5°C 61% Calm Calm -- 30.30 in1026.1 mb 0.00 in0.0 mm 0.00 in0.0 mm 0.00 in0.0 mm
09:18 PM 9.4°F-12.6°C -1.7°F-18.7°C 60% Calm Calm -- 30.31 in1026.4 mb 0.00 in0.0 mm 0.00 in0.0 mm 0.00 in0.0 mm
09:22 PM 9.3°F-12.6°C -1.4°F-18.6°C 61% Calm Calm -- 30.31 in1026.4 mb 0.00 in0.0 mm 0.00 in0.0 mm 0.00 in0.0 mm
09:24 PM 9.2°F-12.7°C -1.5°F-18.6°C 61% Calm Calm -- 30.31 in1026.4 mb 0.00 in0.0 mm 0.00 in0.0 mm 0.00 in0.0 mm
09:26 PM 9.2°F-12.7°C -1.5°F-18.6°C 61% Calm Calm -- 30.31 in1026.4 mb 0.00 in0.0 mm 0.00 in0.0 mm 0.00 in0.0 mm
09:28 PM 9.2°F-12.7°C -1.5°F-18.6°C 61% 1.0 mph W1.6 kmh W 1.0 mph1.6 kmh 30.31 in1026.4 mb 0.00 in0.0 mm 0.00 in0.0 mm 0.00 in0.0 mm
09:30 PM 9.2°F-12.7°C -1.5°F-18.6°C 61% Calm Calm -- 30.31 in1026.4 mb 0.00 in0.0 mm 0.00 in0.0 mm 0.00 in0.0 mm
09:32 PM 9.1°F-12.7°C -1.6°F-18.7°C 61% Calm Calm -- 30.31 in1026.4 mb 0.00 in0.0 mm 0.00 in0.0 mm 0.00 in0.0 mm
09:34 PM 9.0°F-12.8°C -2.1°F-18.9°C 60% Calm Calm -- 30.31 in1026.4 mb 0.00 in0.0 mm 0.00 in0.0 mm 0.00 in0.0 mm
09:36 PM 9.0°F-12.8°C -2.1°F-18.9°C 60% Calm Calm -- 30.31 in1026.4 mb 0.00 in0.0 mm 0.00 in0.0 mm 0.00 in0.0 mm
09:38 PM 9.0°F-12.8°C -1.7°F-18.7°C 61% Calm Calm -- 30.31 in1026.4 mb 0.00 in0.0 mm 0.00 in0.0 mm 0.00 in0.0 mm
09:40 PM 8.9°F-12.8°C -1.8°F-18.8°C 61% Calm Calm -- 30.31 in1026.4 mb 0.00 in0.0 mm 0.00 in0.0 mm 0.00 in0.0 mm
09:42 PM 8.9°F-12.8°C -1.8°F-18.8°C 61% Calm Calm -- 30.31 in1026.4 mb 0.00 in0.0 mm 0.00 in0.0 mm 0.00 in0.0 mm
09:44 PM 8.8°F-12.9°C -1.9°F-18.8°C 61% Calm Calm -- 30.31 in1026.4 mb 0.00 in0.0 mm 0.00 in0.0 mm 0.00 in0.0 mm
09:46 PM 8.7°F-12.9°C -2.0°F-18.9°C 61% Calm Calm -- 30.31 in1026.4 mb 0.00 in0.0 mm 0.00 in0.0 mm 0.00 in0.0 mm
09:48 PM 8.6°F-13.0°C -2.1°F-18.9°C 61% Calm Calm -- 30.31 in1026.4 mb 0.00 in0.0 mm 0.00 in0.0 mm 0.00 in0.0 mm
09:50 PM 8.6°F-13.0°C -2.1°F-18.9°C 61% Calm Calm -- 30.31 in1026.4 mb 0.00 in0.0 mm 0.00 in0.0 mm 0.00 in0.0 mm
09:52 PM 8.5°F-13.1°C -2.2°F-19.0°C 61% Calm Calm -- 30.31 in1026.4 mb 0.00 in0.0 mm 0.00 in0.0 mm 0.00 in0.0 mm
09:54 PM 8.4°F-13.1°C -1.9°F-18.8°C 62% Calm Calm -- 30.31 in1026.4 mb 0.00 in0.0 mm 0.00 in0.0 mm 0.00 in0.0 mm
09:56 PM 8.3°F-13.2°C -2.0°F-18.9°C 62% Calm Calm -- 30.31 in1026.4 mb 0.00 in0.0 mm 0.00 in0.0 mm 0.00 in0.0 mm
09:58 PM 8.2°F-13.2°C -2.1°F-18.9°C 62% Calm Calm -- 30.31 in1026.4 mb 0.00 in0.0 mm 0.00 in0.0 mm 0.00 in0.0 mm
10:00 PM 8.1°F-13.3°C -2.2°F-19.0°C 62% Calm Calm -- 30.31 in1026.4 mb 0.00 in0.0 mm 0.00 in0.0 mm 0.00 in0.0 mm
10:02 PM 8.1°F-13.3°C -1.9°F-18.8°C 63% Calm Calm -- 30.31 in1026.4 mb 0.00 in0.0 mm 0.00 in0.0 mm 0.00 in0.0 mm
10:04 PM 8.0°F-13.3°C -2.0°F-18.9°C 63% Calm Calm -- 30.31 in1026.4 mb 0.00 in0.0 mm 0.00 in0.0 mm 0.00 in0.0 mm
10:06 PM 8.0°F-13.3°C -2.0°F-18.9°C 63% Calm Calm -- 30.31 in1026.4 mb 0.00 in0.0 mm 0.00 in0.0 mm 0.00 in0.0 mm
10:08 PM 7.9°F-13.4°C -2.1°F-18.9°C 63% Calm Calm -- 30.31 in1026.4 mb 0.00 in0.0 mm 0.00 in0.0 mm 0.00 in0.0 mm
10:10 PM 7.8°F-13.4°C -2.2°F-19.0°C 63% Calm Calm -- 30.30 in1026.1 mb 0.00 in0.0 mm 0.00 in0.0 mm 0.00 in0.0 mm
10:12 PM 7.7°F-13.5°C -1.9°F-18.8°C 64% Calm Calm -- 30.31 in1026.4 mb 0.00 in0.0 mm 0.00 in0.0 mm 0.00 in0.0 mm
10:14 PM 7.7°F-13.5°C -1.9°F-18.8°C 64% Calm Calm -- 30.30 in1026.1 mb 0.00 in0.0 mm 0.00 in0.0 mm 0.00 in0.0 mm
10:16 PM 7.6°F-13.6°C -2.0°F-18.9°C 64% Calm Calm -- 30.30 in1026.1 mb 0.00 in0.0 mm 0.00 in0.0 mm 0.00 in0.0 mm
10:18 PM 7.6°F-13.6°C -1.7°F-18.7°C 65% Calm Calm -- 30.30 in1026.1 mb 0.00 in0.0 mm 0.00 in0.0 mm 0.00 in0.0 mm
10:22 PM 7.4°F-13.7°C -1.9°F-18.8°C 65% Calm Calm -- 30.31 in1026.4 mb 0.00 in0.0 mm 0.00 in0.0 mm 0.00 in0.0 mm
10:24 PM 7.4°F-13.7°C -1.9°F-18.8°C 65% Calm Calm -- 30.31 in1026.4 mb 0.00 in0.0 mm 0.00 in0.0 mm 0.00 in0.0 mm
10:26 PM 7.3°F-13.7°C -2.0°F-18.9°C 65% Calm Calm -- 30.30 in1026.1 mb 0.00 in0.0 mm 0.00 in0.0 mm 0.00 in0.0 mm
10:28 PM 7.2°F-13.8°C -2.1°F-18.9°C 65% Calm Calm -- 30.31 in1026.4 mb 0.00 in0.0 mm 0.00 in0.0 mm 0.00 in0.0 mm
10:30 PM 7.1°F-13.8°C -2.2°F-19.0°C 65% Calm Calm -- 30.31 in1026.4 mb 0.00 in0.0 mm 0.00 in0.0 mm 0.00 in0.0 mm
10:32 PM 6.9°F-13.9°C -2.0°F-18.9°C 66% Calm Calm -- 30.31 in1026.4 mb 0.00 in0.0 mm 0.00 in0.0 mm 0.00 in0.0 mm
10:34 PM 6.9°F-13.9°C -2.0°F-18.9°C 66% Calm Calm -- 30.31 in1026.4 mb 0.00 in0.0 mm 0.00 in0.0 mm 0.00 in0.0 mm
10:36 PM 6.8°F-14.0°C -2.1°F-18.9°C 66% Calm Calm -- 30.30 in1026.1 mb 0.00 in0.0 mm 0.00 in0.0 mm 0.00 in0.0 mm
10:38 PM 6.7°F-14.1°C -2.2°F-19.0°C 66% Calm Calm -- 30.30 in1026.1 mb 0.00 in0.0 mm 0.00 in0.0 mm 0.00 in0.0 mm
10:40 PM 6.6°F-14.1°C -2.0°F-18.9°C 67% Calm Calm 1.0 mph1.6 kmh 30.30 in1026.1 mb 0.00 in0.0 mm 0.00 in0.0 mm 0.00 in0.0 mm
10:42 PM 6.5°F-14.2°C -2.1°F-18.9°C 67% Calm Calm -- 30.30 in1026.1 mb 0.00 in0.0 mm 0.00 in0.0 mm 0.00 in0.0 mm
10:44 PM 6.5°F-14.2°C -2.1°F-18.9°C 67% Calm Calm -- 30.30 in1026.1 mb 0.00 in0.0 mm 0.00 in0.0 mm 0.00 in0.0 mm
10:46 PM 6.5°F-14.2°C -2.1°F-18.9°C 67% Calm Calm -- 30.30 in1026.1 mb 0.00 in0.0 mm 0.00 in0.0 mm 0.00 in0.0 mm
10:48 PM 6.4°F-14.2°C -2.2°F-19.0°C 67% Calm Calm -- 30.30 in1026.1 mb 0.00 in0.0 mm 0.00 in0.0 mm 0.00 in0.0 mm
10:50 PM 6.4°F-14.2°C -2.2°F-19.0°C 67% Calm Calm -- 30.30 in1026.1 mb 0.00 in0.0 mm 0.00 in0.0 mm 0.00 in0.0 mm
10:52 PM 6.4°F-14.2°C -2.2°F-19.0°C 67% Calm Calm -- 30.30 in1026.1 mb 0.00 in0.0 mm 0.00 in0.0 mm 0.00 in0.0 mm
10:54 PM 6.3°F-14.3°C -2.0°F-18.9°C 68% Calm Calm -- 30.30 in1026.1 mb 0.00 in0.0 mm 0.00 in0.0 mm 0.00 in0.0 mm
10:56 PM 6.3°F-14.3°C -2.0°F-18.9°C 68% Calm Calm -- 30.30 in1026.1 mb 0.00 in0.0 mm 0.00 in0.0 mm 0.00 in0.0 mm
10:58 PM 6.3°F-14.3°C -2.0°F-18.9°C 68% Calm Calm -- 30.30 in1026.1 mb 0.00 in0.0 mm 0.00 in0.0 mm 0.00 in0.0 mm
11:00 PM 6.2°F-14.3°C -1.8°F-18.8°C 69% Calm Calm -- 30.30 in1026.1 mb 0.00 in0.0 mm 0.00 in0.0 mm 0.00 in0.0 mm
11:02 PM 6.2°F-14.3°C -1.8°F-18.8°C 69% Calm Calm -- 30.30 in1026.1 mb 0.00 in0.0 mm 0.00 in0.0 mm 0.00 in0.0 mm
11:04 PM 6.2°F-14.3°C -1.8°F-18.8°C 69% Calm Calm -- 30.30 in1026.1 mb 0.00 in0.0 mm 0.00 in0.0 mm 0.00 in0.0 mm
11:06 PM 6.2°F-14.3°C -1.8°F-18.8°C 69% Calm Calm -- 30.30 in1026.1 mb 0.00 in0.0 mm 0.00 in0.0 mm 0.00 in0.0 mm
11:08 PM 6.1°F-14.4°C -1.9°F-18.8°C 69% Calm Calm -- 30.30 in1026.1 mb 0.00 in0.0 mm 0.00 in0.0 mm 0.00 in0.0 mm
11:10 PM 6.1°F-14.4°C -1.9°F-18.8°C 69% Calm Calm -- 30.30 in1026.1 mb 0.00 in0.0 mm 0.00 in0.0 mm 0.00 in0.0 mm
11:12 PM 6.0°F-14.4°C -1.7°F-18.7°C 70% Calm Calm -- 30.30 in1026.1 mb 0.00 in0.0 mm 0.00 in0.0 mm 0.00 in0.0 mm
11:14 PM 6.0°F-14.4°C -1.7°F-18.7°C 70% Calm Calm -- 30.30 in1026.1 mb 0.00 in0.0 mm 0.00 in0.0 mm 0.00 in0.0 mm
11:16 PM 5.9°F-14.5°C -1.8°F-18.8°C 70% Calm Calm -- 30.29 in1025.7 mb 0.00 in0.0 mm 0.00 in0.0 mm 0.00 in0.0 mm
11:18 PM 5.8°F-14.6°C -1.9°F-18.8°C 70% Calm Calm -- 30.29 in1025.7 mb 0.00 in0.0 mm 0.00 in0.0 mm 0.00 in0.0 mm
11:20 PM 5.8°F-14.6°C -1.6°F-18.7°C 71% Calm Calm -- 30.29 in1025.7 mb 0.00 in0.0 mm 0.00 in0.0 mm 0.00 in0.0 mm
11:22 PM 5.7°F-14.6°C -1.7°F-18.7°C 71% Calm Calm -- 30.29 in1025.7 mb 0.00 in0.0 mm 0.00 in0.0 mm 0.00 in0.0 mm
11:24 PM 5.7°F-14.6°C -1.7°F-18.7°C 71% 2.0 mph W3.2 kmh W 2.0 mph3.2 kmh 30.29 in1025.7 mb 0.00 in0.0 mm 0.00 in0.0 mm 0.00 in0.0 mm
11:26 PM 5.7°F-14.6°C -1.7°F-18.7°C 71% Calm Calm -- 30.29 in1025.7 mb 0.00 in0.0 mm 0.00 in0.0 mm 0.00 in0.0 mm
11:28 PM 5.6°F-14.7°C -1.8°F-18.8°C 71% Calm Calm -- 30.29 in1025.7 mb 0.00 in0.0 mm 0.00 in0.0 mm 0.00 in0.0 mm
11:30 PM 5.6°F-14.7°C -1.5°F-18.6°C 72% Calm Calm -- 30.29 in1025.7 mb 0.00 in0.0 mm 0.00 in0.0 mm 0.00 in0.0 mm
11:32 PM 5.6°F-14.7°C -1.5°F-18.6°C 72% Calm Calm 1.0 mph1.6 kmh 30.29 in1025.7 mb 0.00 in0.0 mm 0.00 in0.0 mm 0.00 in0.0 mm
11:34 PM 5.6°F-14.7°C -1.5°F-18.6°C 72% Calm Calm -- 30.29 in1025.7 mb 0.00 in0.0 mm 0.00 in0.0 mm 0.00 in0.0 mm
11:36 PM 5.6°F-14.7°C -1.5°F-18.6°C 72% Calm Calm -- 30.29 in1025.7 mb 0.00 in0.0 mm 0.00 in0.0 mm 0.00 in0.0 mm
11:38 PM 5.6°F-14.7°C -1.5°F-18.6°C 72% Calm Calm -- 30.29 in1025.7 mb 0.00 in0.0 mm 0.00 in0.0 mm 0.00 in0.0 mm
11:40 PM 5.7°F-14.6°C -1.4°F-18.6°C 72% Calm Calm -- 30.29 in1025.7 mb 0.00 in0.0 mm 0.00 in0.0 mm 0.00 in0.0 mm
11:42 PM 5.7°F-14.6°C -1.4°F-18.6°C 72% Calm Calm -- 30.29 in1025.7 mb 0.00 in0.0 mm 0.00 in0.0 mm 0.00 in0.0 mm
11:44 PM 5.7°F-14.6°C -1.4°F-18.6°C 72% Calm Calm -- 30.29 in1025.7 mb 0.00 in0.0 mm 0.00 in0.0 mm 0.00 in0.0 mm
11:46 PM 5.8°F-14.6°C -1.3°F-18.5°C 72% Calm Calm 1.0 mph1.6 kmh 30.29 in1025.7 mb 0.00 in0.0 mm 0.00 in0.0 mm 0.00 in0.0 mm
11:48 PM 5.8°F-14.6°C -1.3°F-18.5°C 72% 1.0 mph W1.6 kmh W 2.0 mph3.2 kmh 30.29 in1025.7 mb 0.00 in0.0 mm 0.00 in0.0 mm 0.00 in0.0 mm
11:50 PM 5.8°F-14.6°C -1.3°F-18.5°C 72% Calm Calm -- 30.29 in1025.7 mb 0.00 in0.0 mm 0.00 in0.0 mm 0.00 in0.0 mm
11:52 PM 5.7°F-14.6°C -1.4°F-18.6°C 72% 1.0 mph W1.6 kmh W 1.0 mph1.6 kmh 30.28 in1025.4 mb 0.00 in0.0 mm 0.00 in0.0 mm 0.00 in0.0 mm
11:54 PM 5.7°F-14.6°C -1.4°F-18.6°C 72% 1.0 mph W1.6 kmh W 1.0 mph1.6 kmh 30.29 in1025.7 mb 0.00 in0.0 mm 0.00 in0.0 mm 0.00 in0.0 mm
11:56 PM 5.6°F-14.7°C -1.5°F-18.6°C 72% Calm Calm -- 30.28 in1025.4 mb 0.00 in0.0 mm 0.00 in0.0 mm 0.00 in0.0 mm
11:58 PM 5.5°F-14.7°C -1.6°F-18.7°C 72% Calm Calm -- 30.29 in1025.7 mb 0.00 in0.0 mm 0.00 in0.0 mm 0.00 in0.0 mm